<?xml version='1.0' encoding='UTF-8'?><gpx version="1.1" creator="JPX - https://github.com/jenetics/jpx" xmlns="http://www.topografix.com/GPX/1/1"><trk><trkseg><trkpt lat="46.01098618149607" lon="10.352285431228417"><ele>425.0</ele><time>2026-05-02T15:41:21.008Z</time></trkpt><trkpt lat="46.01120358758312" lon="10.352338029579034"><ele>425.0</ele><time>2026-05-02T15:44:31.999Z</time></trkpt><trkpt lat="46.011256372994254" lon="10.352467565347096"><ele>425.0</ele><time>2026-05-02T15:44:44.999Z</time></trkpt><trkpt lat="46.011241583393904" lon="10.35255590161996"><ele>425.0</ele><time>2026-05-02T15:44:51.999Z</time></trkpt><trkpt lat="46.01121054728447" lon="10.352635431022376"><ele>425.0</ele><time>2026-05-02T15:44:57.999Z</time></trkpt><trkpt lat="46.01113818996876" lon="10.352626156825124"><ele>425.0</ele><time>2026-05-02T15:45:13.999Z</time></trkpt><trkpt lat="46.0110639086084" lon="10.352586227355447"><ele>425.0</ele><time>2026-05-02T15:45:16.999Z</time></trkpt><trkpt lat="46.011022425580116" lon="10.352513210835745"><ele>425.0</ele><time>2026-05-02T15:45:24.998Z</time></trkpt><trkpt lat="46.010950836326344" lon="10.352480937283843"><ele>425.0</ele><time>2026-05-02T15:45:29Z</time></trkpt><trkpt lat="46.010891404228445" lon="10.352448259058535"><ele>425.0</ele><time>2026-05-02T15:45:32Z</time></trkpt><trkpt lat="46.01081601788319" lon="10.352419615052574"><ele>425.0</ele><time>2026-05-02T15:45:35Z</time></trkpt><trkpt lat="46.010758060363784" lon="10.352369913670326"><ele>424.8333333333333</ele><time>2026-05-02T15:45:45Z</time></trkpt><trkpt lat="46.010690082473815" lon="10.352339764292367"><ele>424.66666666666663</ele><time>2026-05-02T15:45:50Z</time></trkpt><trkpt lat="46.01062325445497" lon="10.352291027567862"><ele>424.5</ele><time>2026-05-02T15:45:55Z</time></trkpt><trkpt lat="46.010590914865965" lon="10.35219141258059"><ele>424.33333333333337</ele><time>2026-05-02T15:46:01Z</time></trkpt><trkpt lat="46.01055804872718" lon="10.352072377509554"><ele>424.1666666666667</ele><time>2026-05-02T15:46:06Z</time></trkpt><trkpt lat="46.01054447973346" lon="10.351949059046545"><ele>424.0</ele><time>2026-05-02T15:46:09Z</time></trkpt><trkpt lat="46.01054924824886" lon="10.351848941700917"><ele>424.0</ele><time>2026-05-02T15:46:10.999Z</time></trkpt><trkpt lat="46.01057724129753" lon="10.35169631301842"><ele>424.0</ele><time>2026-05-02T15:46:13.999Z</time></trkpt><trkpt lat="46.01060871190874" lon="10.351533371063505"><ele>424.0</ele><time>2026-05-02T15:46:15.999Z</time></trkpt><trkpt lat="46.01067324158343" lon="10.351396187702884"><ele>424.0</ele><time>2026-05-02T15:46:17.999Z</time></trkpt><trkpt lat="46.010778311397736" lon="10.351250738941673"><ele>421.0</ele><time>2026-05-02T15:46:19.999Z</time></trkpt><trkpt lat="46.01084448626348" lon="10.351168031507044"><ele>418.0</ele><time>2026-05-02T15:46:20.999Z</time></trkpt><trkpt lat="46.01092748942191" lon="10.351064026390278"><ele>415.0</ele><time>2026-05-02T15:46:21.999Z</time></trkpt><trkpt lat="46.01100687821755" lon="10.350941469749975"><ele>412.0</ele><time>2026-05-02T15:46:22.999Z</time></trkpt><trkpt lat="46.01109944650815" lon="10.350846939412314"><ele>409.0</ele><time>2026-05-02T15:46:23.999Z</time></trkpt><trkpt lat="46.01118401970865" lon="10.350740170164409"><ele>409.0</ele><time>2026-05-02T15:46:24.999Z</time></trkpt><trkpt lat="46.011255425279835" lon="10.350618722222082"><ele>409.0</ele><time>2026-05-02T15:46:25.999Z</time></trkpt><trkpt lat="46.011346227949275" lon="10.350536722817132"><ele>409.0</ele><time>2026-05-02T15:46:26.999Z</time></trkpt><trkpt lat="46.011425030354246" lon="10.350439175946674"><ele>409.0</ele><time>2026-05-02T15:46:27.999Z</time></trkpt><trkpt lat="46.011493060772814" lon="10.35034916145903"><ele>409.0</ele><time>2026-05-02T15:46:28.999Z</time></trkpt><trkpt lat="46.01155948074818" lon="10.350259878124772"><ele>407.79999999999995</ele><time>2026-05-02T15:46:29.999Z</time></trkpt><trkpt lat="46.011599272039156" lon="10.35011076462366"><ele>406.59999999999997</ele><time>2026-05-02T15:46:30.999Z</time></trkpt><trkpt lat="46.0116515392255" lon="10.349986246408067"><ele>405.4</ele><time>2026-05-02T15:46:31.999Z</time></trkpt><trkpt lat="46.01169786152468" lon="10.349860174606764"><ele>404.2</ele><time>2026-05-02T15:46:32.999Z</time></trkpt><trkpt lat="46.01174402610112" lon="10.349736286496567"><ele>403.0</ele><time>2026-05-02T15:46:33.999Z</time></trkpt><trkpt lat="46.011787343057655" lon="10.34961807116038"><ele>401.1666666666667</ele><time>2026-05-02T15:46:34.999Z</time></trkpt><trkpt lat="46.01183353854522" lon="10.349508407703427"><ele>399.33333333333337</ele><time>2026-05-02T15:46:35.999Z</time></trkpt><trkpt lat="46.01187715628877" lon="10.3494021043062"><ele>397.5</ele><time>2026-05-02T15:46:36.999Z</time></trkpt><trkpt lat="46.011922965293756" lon="10.34929689516567"><ele>395.66666666666663</ele><time>2026-05-02T15:46:37.999Z</time></trkpt><trkpt lat="46.01195820538864" lon="10.349205767965751"><ele>393.8333333333333</ele><time>2026-05-02T15:46:38.999Z</time></trkpt><trkpt lat="46.01199741028137" lon="10.349132840410473"><ele>392.0</ele><time>2026-05-02T15:46:39.999Z</time></trkpt><trkpt lat="46.01205540888475" lon="10.349085671403095"><ele>392.0</ele><time>2026-05-02T15:46:41.999Z</time></trkpt><trkpt lat="46.012117918012706" lon="10.349049995769507"><ele>392.0</ele><time>2026-05-02T15:46:48.999Z</time></trkpt><trkpt lat="46.01201848517664" lon="10.34911003761792"><ele>392.0</ele><time>2026-05-02T15:47:19.999Z</time></trkpt><trkpt lat="46.012048362973694" lon="10.349009163046903"><ele>392.0</ele><time>2026-05-02T15:47:20.999Z</time></trkpt><trkpt lat="46.01188628056869" lon="10.349285774861082"><ele>392.0</ele><time>2026-05-02T15:47:22.999Z</time></trkpt><trkpt lat="46.011864302012626" lon="10.349377445295696"><ele>392.0</ele><time>2026-05-02T15:47:23.998Z</time></trkpt><trkpt lat="46.011799376342715" lon="10.349558157925191"><ele>392.0</ele><time>2026-05-02T15:47:24.998Z</time></trkpt><trkpt lat="46.01172592611131" lon="10.349750995598079"><ele>392.0</ele><time>2026-05-02T15:47:25.998Z</time></trkpt><trkpt lat="46.011650435350376" lon="10.34994620780142"><ele>394.75</ele><time>2026-05-02T15:47:26.998Z</time></trkpt><trkpt lat="46.01157959909561" lon="10.350118243451428"><ele>397.5</ele><time>2026-05-02T15:47:27.998Z</time></trkpt><trkpt lat="46.01152146714808" lon="10.350261960608504"><ele>400.25</ele><time>2026-05-02T15:47:28.998Z</time></trkpt><trkpt lat="46.011467752665126" lon="10.350381914268448"><ele>403.0</ele><time>2026-05-02T15:47:29.998Z</time></trkpt><trkpt lat="46.011363788225125" lon="10.350451900300968"><ele>404.5</ele><time>2026-05-02T15:47:30.998Z</time></trkpt><trkpt lat="46.01127268877905" lon="10.35056460757804"><ele>406.0</ele><time>2026-05-02T15:47:31.999Z</time></trkpt><trkpt lat="46.01118055200076" lon="10.35068092528366"><ele>407.5</ele><time>2026-05-02T15:47:32.999Z</time></trkpt><trkpt lat="46.011082722103126" lon="10.350804430378336"><ele>409.0</ele><time>2026-05-02T15:47:33.999Z</time></trkpt><trkpt lat="46.01098741632669" lon="10.350924749060495"><ele>409.0</ele><time>2026-05-02T15:47:34.999Z</time></trkpt><trkpt lat="46.010897406618355" lon="10.35103838172702"><ele>409.0</ele><time>2026-05-02T15:47:35.999Z</time></trkpt><trkpt lat="46.010805418529145" lon="10.351153513638403"><ele>409.0</ele><time>2026-05-02T15:47:36.999Z</time></trkpt><trkpt lat="46.01073171986403" lon="10.351245624279642"><ele>409.0</ele><time>2026-05-02T15:47:37.999Z</time></trkpt><trkpt lat="46.010676084687795" lon="10.351323840397269"><ele>409.0</ele><time>2026-05-02T15:47:38.999Z</time></trkpt><trkpt lat="46.01062705550691" lon="10.351423860216972"><ele>411.50000000000006</ele><time>2026-05-02T15:47:40Z</time></trkpt><trkpt lat="46.010581401488054" lon="10.351528516863727"><ele>414.0</ele><time>2026-05-02T15:47:41Z</time></trkpt><trkpt lat="46.01056262526371" lon="10.351631554474759"><ele>416.5</ele><time>2026-05-02T15:47:42Z</time></trkpt><trkpt lat="46.01055226904205" lon="10.351726834166785"><ele>419.0</ele><time>2026-05-02T15:47:43Z</time></trkpt><trkpt lat="46.0105519633897" lon="10.351851215351266"><ele>421.50000000000006</ele><time>2026-05-02T15:47:45Z</time></trkpt><trkpt lat="46.0105303791603" lon="10.352009488522002"><ele>424.0</ele><time>2026-05-02T15:47:47Z</time></trkpt><trkpt lat="46.01052506678365" lon="10.35210634874803"><ele>424.0</ele><time>2026-05-02T15:47:48Z</time></trkpt><trkpt lat="46.01051982043817" lon="10.35220200268044"><ele>424.0</ele><time>2026-05-02T15:47:49Z</time></trkpt><trkpt lat="46.0106956411922" lon="10.352373022265864"><ele>424.0</ele><time>2026-05-02T15:47:51Z</time></trkpt><trkpt lat="46.01080411192803" lon="10.352456386501776"><ele>424.0</ele><time>2026-05-02T15:47:52Z</time></trkpt><trkpt lat="46.01092638315538" lon="10.352531843854244"><ele>424.33333333333337</ele><time>2026-05-02T15:47:53Z</time></trkpt><trkpt lat="46.0110363748671" lon="10.352562796290215"><ele>424.66666666666663</ele><time>2026-05-02T15:47:54Z</time></trkpt><trkpt lat="46.011153939047354" lon="10.35263088732438"><ele>425.0</ele><time>2026-05-02T15:47:55Z</time></trkpt><trkpt lat="46.011453942438756" lon="10.352751377484209"><ele>425.0</ele><time>2026-05-02T15:47:57Z</time></trkpt><trkpt lat="46.01160927684393" lon="10.352809350730048"><ele>425.0</ele><time>2026-05-02T15:47:58Z</time></trkpt><trkpt lat="46.01174548506135" lon="10.35285302419801"><ele>425.0</ele><time>2026-05-02T15:47:59Z</time></trkpt><trkpt lat="46.011851109678695" lon="10.352935781565398"><ele>425.0</ele><time>2026-05-02T15:48:00Z</time></trkpt><trkpt lat="46.011975573085905" lon="10.353004381772154"><ele>427.4</ele><time>2026-05-02T15:48:01Z</time></trkpt><trkpt lat="46.01206827715348" lon="10.353052093192984"><ele>429.8</ele><time>2026-05-02T15:48:01.999Z</time></trkpt><trkpt lat="46.012161457284165" lon="10.353051441709841"><ele>432.20000000000005</ele><time>2026-05-02T15:48:02.999Z</time></trkpt><trkpt lat="46.01227018439399" lon="10.353055325540959"><ele>434.6</ele><time>2026-05-02T15:48:03.999Z</time></trkpt><trkpt lat="46.0123854335256" lon="10.353046885302678"><ele>437.0</ele><time>2026-05-02T15:48:04.999Z</time></trkpt><trkpt lat="46.01247319253707" lon="10.353091540024696"><ele>436.6</ele><time>2026-05-02T15:48:05.999Z</time></trkpt><trkpt lat="46.01253737669631" lon="10.353089685227575"><ele>436.20000000000005</ele><time>2026-05-02T15:48:06.999Z</time></trkpt><trkpt lat="46.01259770505506" lon="10.353017095636378"><ele>435.8</ele><time>2026-05-02T15:48:07.999Z</time></trkpt><trkpt lat="46.012678006162695" lon="10.352918911324052"><ele>435.4</ele><time>2026-05-02T15:48:08.999Z</time></trkpt><trkpt lat="46.01277424303485" lon="10.352794612904626"><ele>435.0</ele><time>2026-05-02T15:48:09.999Z</time></trkpt><trkpt lat="46.01288569209932" lon="10.352690760866876"><ele>433.2</ele><time>2026-05-02T15:48:10.999Z</time></trkpt><trkpt lat="46.01295761553503" lon="10.352578852734311"><ele>431.4</ele><time>2026-05-02T15:48:11.999Z</time></trkpt><trkpt lat="46.013031494164295" lon="10.35247311829178"><ele>429.6</ele><time>2026-05-02T15:48:12.999Z</time></trkpt><trkpt lat="46.01310927623014" lon="10.352387911115033"><ele>427.8</ele><time>2026-05-02T15:48:13.999Z</time></trkpt><trkpt lat="46.01318962855952" lon="10.352299968917581"><ele>426.0</ele><time>2026-05-02T15:48:14.999Z</time></trkpt><trkpt lat="46.013270194614606" lon="10.352236855314414"><ele>425.3333333333333</ele><time>2026-05-02T15:48:15.999Z</time></trkpt><trkpt lat="46.01333486306379" lon="10.352161067509883"><ele>424.66666666666663</ele><time>2026-05-02T15:48:16.999Z</time></trkpt><trkpt lat="46.013392296476034" lon="10.352083497525728"><ele>424.0</ele><time>2026-05-02T15:48:17.999Z</time></trkpt><trkpt lat="46.0134509522292" lon="10.35202163373935"><ele>423.3333333333333</ele><time>2026-05-02T15:48:18.999Z</time></trkpt><trkpt lat="46.01353715047918" lon="10.351920418956633"><ele>422.66666666666663</ele><time>2026-05-02T15:48:20.999Z</time></trkpt><trkpt lat="46.01361090627897" lon="10.351816232114023"><ele>422.0</ele><time>2026-05-02T15:48:22.999Z</time></trkpt><trkpt lat="46.01359126144525" lon="10.351653834804933"><ele>422.0</ele><time>2026-05-02T15:48:24.999Z</time></trkpt><trkpt lat="46.01342992760254" lon="10.35147205120315"><ele>422.0</ele><time>2026-05-02T15:48:25.999Z</time></trkpt><trkpt lat="46.01347105026498" lon="10.35131072799446"><ele>422.0</ele><time>2026-05-02T15:48:27.999Z</time></trkpt><trkpt lat="46.0134985886094" lon="10.351202696228496"><ele>422.0</ele><time>2026-05-02T15:48:29.999Z</time></trkpt><trkpt lat="46.01355173736343" lon="10.35113313368036"><ele>412.5</ele><time>2026-05-02T15:48:32.999Z</time></trkpt><trkpt lat="46.013936586555744" lon="10.351337058328655"><ele>403.0</ele><time>2026-05-02T15:48:33.999Z</time></trkpt><trkpt lat="46.014026761799336" lon="10.351305721205318"><ele>403.00000000000006</ele><time>2026-05-02T15:48:35.999Z</time></trkpt><trkpt lat="46.01411358046834" lon="10.351308781532175"><ele>403.0</ele><time>2026-05-02T15:48:37.999Z</time></trkpt><trkpt lat="46.01417510559936" lon="10.351331000935328"><ele>403.0</ele><time>2026-05-02T15:48:39.999Z</time></trkpt><trkpt lat="46.01424474045583" lon="10.351340518210176"><ele>403.0</ele><time>2026-05-02T15:48:41.999Z</time></trkpt><trkpt lat="46.014319513062766" lon="10.351362817601334"><ele>403.00000000000006</ele><time>2026-05-02T15:48:43.999Z</time></trkpt><trkpt lat="46.01439791709479" lon="10.35138893811623"><ele>403.0</ele><time>2026-05-02T15:48:45.999Z</time></trkpt><trkpt lat="46.014487207961366" lon="10.351389627692477"><ele>409.2</ele><time>2026-05-02T15:48:47.999Z</time></trkpt><trkpt lat="46.014575927424005" lon="10.35141034428539"><ele>415.4</ele><time>2026-05-02T15:48:49.999Z</time></trkpt><trkpt lat="46.014675652885806" lon="10.351439937586585"><ele>421.59999999999997</ele><time>2026-05-02T15:48:51.999Z</time></trkpt><trkpt lat="46.014756766634854" lon="10.35145023163367"><ele>427.79999999999995</ele><time>2026-05-02T15:48:54.999Z</time></trkpt><trkpt lat="46.01483723555492" lon="10.351461002971625"><ele>434.0</ele><time>2026-05-02T15:48:57.999Z</time></trkpt><trkpt lat="46.01494545812484" lon="10.351465693183798"><ele>433.0</ele><time>2026-05-02T15:48:59.999Z</time></trkpt><trkpt lat="46.015013228566936" lon="10.35146623354273"><ele>432.0</ele><time>2026-05-02T15:49:00.999Z</time></trkpt><trkpt lat="46.015082440746944" lon="10.35150444758991"><ele>431.0</ele><time>2026-05-02T15:49:01.999Z</time></trkpt><trkpt lat="46.01516448104367" lon="10.351582035799689"><ele>430.0</ele><time>2026-05-02T15:49:03.999Z</time></trkpt><trkpt lat="46.01524697626585" lon="10.351639839257645"><ele>429.0</ele><time>2026-05-02T15:49:05.999Z</time></trkpt><trkpt lat="46.01537273330402" lon="10.35162825136874"><ele>429.0</ele><time>2026-05-02T15:49:07.999Z</time></trkpt><trkpt lat="46.015447240079745" lon="10.351623061069725"><ele>429.0</ele><time>2026-05-02T15:49:08.999Z</time></trkpt><trkpt lat="46.015520785089045" lon="10.351610368424273"><ele>429.0</ele><time>2026-05-02T15:49:09.999Z</time></trkpt><trkpt lat="46.01564158015515" lon="10.35156680041058"><ele>429.0</ele><time>2026-05-02T15:49:11.999Z</time></trkpt><trkpt lat="46.015753812721776" lon="10.351525540733668"><ele>429.0</ele><time>2026-05-02T15:49:13.999Z</time></trkpt><trkpt lat="46.015828229427214" lon="10.351491284906748"><ele>428.2857142857143</ele><time>2026-05-02T15:49:14.999Z</time></trkpt><trkpt lat="46.01590574890472" lon="10.351459689622498"><ele>427.57142857142856</ele><time>2026-05-02T15:49:15.999Z</time></trkpt><trkpt lat="46.01596695583275" lon="10.35142680263952"><ele>426.8571428571429</ele><time>2026-05-02T15:49:16.999Z</time></trkpt><trkpt lat="46.01604276310483" lon="10.351407090817816"><ele>426.1428571428571</ele><time>2026-05-02T15:49:18.999Z</time></trkpt><trkpt lat="46.0161087517723" lon="10.35140966012905"><ele>425.4285714285714</ele><time>2026-05-02T15:49:19.999Z</time></trkpt><trkpt lat="46.016182040513144" lon="10.351409094340694"><ele>424.7142857142857</ele><time>2026-05-02T15:49:20.999Z</time></trkpt><trkpt lat="46.016265387418386" lon="10.351417389758177"><ele>424.0</ele><time>2026-05-02T15:49:21.999Z</time></trkpt><trkpt lat="46.0163508931642" lon="10.351433197763429"><ele>424.00000000000006</ele><time>2026-05-02T15:49:22.999Z</time></trkpt><trkpt lat="46.01643764328016" lon="10.351436076688877"><ele>424.0</ele><time>2026-05-02T15:49:23.999Z</time></trkpt><trkpt lat="46.01653170235832" lon="10.351440324342224"><ele>424.0</ele><time>2026-05-02T15:49:24.999Z</time></trkpt><trkpt lat="46.0166209648084" lon="10.351444361852844"><ele>424.0</ele><time>2026-05-02T15:49:25.999Z</time></trkpt><trkpt lat="46.016719534050395" lon="10.351424936726554"><ele>424.00000000000006</ele><time>2026-05-02T15:49:27.999Z</time></trkpt><trkpt lat="46.01678726077093" lon="10.351404538096403"><ele>424.0</ele><time>2026-05-02T15:49:29.998Z</time></trkpt><trkpt lat="46.01686334922052" lon="10.351310322186556"><ele>425.6666666666667</ele><time>2026-05-02T15:49:31.998Z</time></trkpt><trkpt lat="46.01692334932423" lon="10.351252132904552"><ele>427.33333333333337</ele><time>2026-05-02T15:49:33.998Z</time></trkpt><trkpt lat="46.01700402251447" lon="10.351201839709026"><ele>429.0</ele><time>2026-05-02T15:49:50.999Z</time></trkpt><trkpt lat="46.01707503733739" lon="10.35124458573697"><ele>430.66666666666663</ele><time>2026-05-02T15:50:06.999Z</time></trkpt><trkpt lat="46.01713269085526" lon="10.35131287875001"><ele>432.3333333333333</ele><time>2026-05-02T15:50:08.999Z</time></trkpt><trkpt lat="46.017193946605815" lon="10.351343926994183"><ele>434.0</ele><time>2026-05-02T15:50:09.999Z</time></trkpt><trkpt lat="46.01726741351848" lon="10.351377556472862"><ele>433.99999999999994</ele><time>2026-05-02T15:50:10.999Z</time></trkpt><trkpt lat="46.01733047688867" lon="10.351398654780933"><ele>434.0</ele><time>2026-05-02T15:50:11.999Z</time></trkpt><trkpt lat="46.01743943258965" lon="10.35144923482533"><ele>434.0</ele><time>2026-05-02T15:50:13.999Z</time></trkpt><trkpt lat="46.01752626976964" lon="10.351489133198488"><ele>434.0</ele><time>2026-05-02T15:50:15.999Z</time></trkpt><trkpt lat="46.01758875253288" lon="10.351527277468495"><ele>433.99999999999994</ele><time>2026-05-02T15:50:16.999Z</time></trkpt><trkpt lat="46.01766069355558" lon="10.351519038965456"><ele>434.0</ele><time>2026-05-02T15:50:18.999Z</time></trkpt><trkpt lat="46.017772365245165" lon="10.351442571689422"><ele>435.3333333333333</ele><time>2026-05-02T15:50:20.999Z</time></trkpt><trkpt lat="46.01787123340764" lon="10.351432869206977"><ele>436.66666666666663</ele><time>2026-05-02T15:50:22.999Z</time></trkpt><trkpt lat="46.01793568728013" lon="10.351405506063715"><ele>438.0</ele><time>2026-05-02T15:50:23.999Z</time></trkpt><trkpt lat="46.01803774908583" lon="10.351394370578928"><ele>439.33333333333337</ele><time>2026-05-02T15:50:25.999Z</time></trkpt><trkpt lat="46.01813082095164" lon="10.351410754010235"><ele>440.6666666666667</ele><time>2026-05-02T15:50:28.999Z</time></trkpt><trkpt lat="46.01819938120011" lon="10.351421775167537"><ele>442.0</ele><time>2026-05-02T15:50:29.999Z</time></trkpt><trkpt lat="46.018284866645" lon="10.35143282082286"><ele>442.40000000000003</ele><time>2026-05-02T15:50:30.999Z</time></trkpt><trkpt lat="46.018347266214064" lon="10.351451770357535"><ele>442.80000000000007</ele><time>2026-05-02T15:50:31.999Z</time></trkpt><trkpt lat="46.018444122088475" lon="10.351518023354544"><ele>443.2</ele><time>2026-05-02T15:50:33.999Z</time></trkpt><trkpt lat="46.01860647873193" lon="10.351505982784841"><ele>443.6</ele><time>2026-05-02T15:50:36.999Z</time></trkpt><trkpt lat="46.018697714422544" lon="10.35148133626306"><ele>444.0</ele><time>2026-05-02T15:50:37.999Z</time></trkpt><trkpt lat="46.018828076970756" lon="10.351415871711321"><ele>437.79999999999995</ele><time>2026-05-02T15:50:46.999Z</time></trkpt><trkpt lat="46.01888695694006" lon="10.351364428417403"><ele>431.59999999999997</ele><time>2026-05-02T15:50:47.999Z</time></trkpt><trkpt lat="46.01896658882974" lon="10.351249616872629"><ele>425.4</ele><time>2026-05-02T15:50:49.999Z</time></trkpt><trkpt lat="46.01899249283655" lon="10.351161822187912"><ele>419.2</ele><time>2026-05-02T15:50:50.999Z</time></trkpt><trkpt lat="46.01904578353727" lon="10.351020605511328"><ele>413.0</ele><time>2026-05-02T15:50:52.999Z</time></trkpt><trkpt lat="46.019109878419755" lon="10.350874891040807"><ele>413.0</ele><time>2026-05-02T15:50:54.999Z</time></trkpt><trkpt lat="46.01918900192411" lon="10.350735756565253"><ele>413.0</ele><time>2026-05-02T15:50:56.999Z</time></trkpt><trkpt lat="46.01925411580013" lon="10.350670528627845"><ele>413.0</ele><time>2026-05-02T15:50:58.999Z</time></trkpt><trkpt lat="46.01931487230711" lon="10.35063579808446"><ele>413.0</ele><time>2026-05-02T15:50:59.999Z</time></trkpt><trkpt lat="46.01939195635791" lon="10.350565503658625"><ele>413.0</ele><time>2026-05-02T15:51:01.999Z</time></trkpt><trkpt lat="46.0194928108702" lon="10.350539432187453"><ele>412.99999999999994</ele><time>2026-05-02T15:51:03.999Z</time></trkpt><trkpt lat="46.01956056045494" lon="10.350516926529721"><ele>413.0</ele><time>2026-05-02T15:51:04.999Z</time></trkpt><trkpt lat="46.01963035389507" lon="10.350493967328745"><ele>413.0</ele><time>2026-05-02T15:51:05.999Z</time></trkpt><trkpt lat="46.01971746146062" lon="10.350447364993046"><ele>413.0</ele><time>2026-05-02T15:51:07.999Z</time></trkpt><trkpt lat="46.01978286587605" lon="10.35044550772598"><ele>412.99999999999994</ele><time>2026-05-02T15:51:08.999Z</time></trkpt><trkpt lat="46.01987847131828" lon="10.350413954202425"><ele>413.0</ele><time>2026-05-02T15:51:09.999Z</time></trkpt><trkpt lat="46.01996882174005" lon="10.350371891903475"><ele>415.49999999999994</ele><time>2026-05-02T15:51:10.999Z</time></trkpt><trkpt lat="46.0200601314197" lon="10.350370029800173"><ele>418.0</ele><time>2026-05-02T15:51:11.999Z</time></trkpt><trkpt lat="46.02014878672342" lon="10.350363990081147"><ele>420.5</ele><time>2026-05-02T15:51:12.999Z</time></trkpt><trkpt lat="46.020211405241234" lon="10.350345830300961"><ele>423.0</ele><time>2026-05-02T15:51:13.999Z</time></trkpt><trkpt lat="46.020309506894954" lon="10.350351068223047"><ele>425.49999999999994</ele><time>2026-05-02T15:51:15.999Z</time></trkpt><trkpt lat="46.02041241949902" lon="10.350324662879924"><ele>428.0</ele><time>2026-05-02T15:51:17.999Z</time></trkpt><trkpt lat="46.020473960546106" lon="10.350300548888487"><ele>427.99999999999994</ele><time>2026-05-02T15:51:18.999Z</time></trkpt><trkpt lat="46.020541851347005" lon="10.350283338793233"><ele>428.0</ele><time>2026-05-02T15:51:19.999Z</time></trkpt><trkpt lat="46.020662032486236" lon="10.350271893501494"><ele>428.0</ele><time>2026-05-02T15:51:21.999Z</time></trkpt><trkpt lat="46.02073228042389" lon="10.35028546774626"><ele>428.0</ele><time>2026-05-02T15:51:22.999Z</time></trkpt><trkpt lat="46.020799163473264" lon="10.350293067720232"><ele>427.99999999999994</ele><time>2026-05-02T15:51:23.999Z</time></trkpt><trkpt lat="46.020866709703455" lon="10.350295505473609"><ele>428.0</ele><time>2026-05-02T15:51:24.999Z</time></trkpt><trkpt lat="46.020951115873764" lon="10.35026183653078"><ele>430.79999999999995</ele><time>2026-05-02T15:51:26.999Z</time></trkpt><trkpt lat="46.02101691200963" lon="10.35020283429123"><ele>433.59999999999997</ele><time>2026-05-02T15:51:28.999Z</time></trkpt><trkpt lat="46.021065726065274" lon="10.350076914535368"><ele>436.40000000000003</ele><time>2026-05-02T15:51:30.999Z</time></trkpt><trkpt lat="46.02112708952145" lon="10.35001850046218"><ele>439.20000000000005</ele><time>2026-05-02T15:51:32.999Z</time></trkpt><trkpt lat="46.02123830027989" lon="10.350051843471517"><ele>442.0</ele><time>2026-05-02T15:51:34.999Z</time></trkpt><trkpt lat="46.02132925713673" lon="10.350071105279993"><ele>442.0</ele><time>2026-05-02T15:51:35.999Z</time></trkpt><trkpt lat="46.02143826257894" lon="10.349879870365742"><ele>442.0</ele><time>2026-05-02T15:51:36.999Z</time></trkpt><trkpt lat="46.021535047066656" lon="10.349904698256273"><ele>442.0</ele><time>2026-05-02T15:51:38.999Z</time></trkpt><trkpt lat="46.02163622767525" lon="10.34993538174161"><ele>442.0</ele><time>2026-05-02T15:51:40.999Z</time></trkpt><trkpt lat="46.021721354795886" lon="10.349966464648517"><ele>444.6</ele><time>2026-05-02T15:51:42.999Z</time></trkpt><trkpt lat="46.02180962680919" lon="10.34993484198538"><ele>447.20000000000005</ele><time>2026-05-02T15:51:44.999Z</time></trkpt><trkpt lat="46.02194433166616" lon="10.349958602878521"><ele>449.8</ele><time>2026-05-02T15:51:46.999Z</time></trkpt><trkpt lat="46.022027366336005" lon="10.349974573971146"><ele>452.4</ele><time>2026-05-02T15:51:47.999Z</time></trkpt><trkpt lat="46.02213242914819" lon="10.349978853280998"><ele>455.0</ele><time>2026-05-02T15:51:49.999Z</time></trkpt><trkpt lat="46.02221444920741" lon="10.349801638455299"><ele>455.0</ele><time>2026-05-02T15:51:53.999Z</time></trkpt><trkpt lat="46.022306231175875" lon="10.349732848697805"><ele>455.0</ele><time>2026-05-02T15:51:56.999Z</time></trkpt><trkpt lat="46.02238449392836" lon="10.349733749329273"><ele>455.0</ele><time>2026-05-02T15:51:57.999Z</time></trkpt><trkpt lat="46.02246835388861" lon="10.349718726873734"><ele>455.0</ele><time>2026-05-02T15:51:58.999Z</time></trkpt><trkpt lat="46.0225325427517" lon="10.349702214580038"><ele>455.0</ele><time>2026-05-02T15:51:59.999Z</time></trkpt><trkpt lat="46.02265447077685" lon="10.349709255803027"><ele>456.49999999999994</ele><time>2026-05-02T15:52:01.999Z</time></trkpt><trkpt lat="46.02275233854523" lon="10.34975490152774"><ele>458.0</ele><time>2026-05-02T15:52:04Z</time></trkpt><trkpt lat="46.02282844571025" lon="10.34984139669083"><ele>459.5</ele><time>2026-05-02T15:52:06Z</time></trkpt><trkpt lat="46.022900502415716" lon="10.34989411852338"><ele>461.0</ele><time>2026-05-02T15:52:08Z</time></trkpt><trkpt lat="46.022855381700495" lon="10.349981269372005"><ele>462.49999999999994</ele><time>2026-05-02T15:52:19.999Z</time></trkpt><trkpt lat="46.02277984358625" lon="10.350050276491373"><ele>464.0</ele><time>2026-05-02T15:52:21.999Z</time></trkpt><trkpt lat="46.02287616307985" lon="10.350128056626076"><ele>463.99999999999994</ele><time>2026-05-02T15:52:27.999Z</time></trkpt><trkpt lat="46.022943394639995" lon="10.350165780953997"><ele>464.0</ele><time>2026-05-02T15:52:28.999Z</time></trkpt><trkpt lat="46.023000797662604" lon="10.350213170725997"><ele>464.0</ele><time>2026-05-02T15:52:29.999Z</time></trkpt><trkpt lat="46.02306999775958" lon="10.350224339674194"><ele>464.0</ele><time>2026-05-02T15:52:31.999Z</time></trkpt><trkpt lat="46.023117726993505" lon="10.350294285252867"><ele>463.99999999999994</ele><time>2026-05-02T15:52:41.999Z</time></trkpt><trkpt lat="46.02319859341945" lon="10.350371554577702"><ele>464.0</ele><time>2026-05-02T15:52:42.999Z</time></trkpt><trkpt lat="46.023277607473155" lon="10.350338472242377"><ele>465.79999999999995</ele><time>2026-05-02T15:52:44.999Z</time></trkpt><trkpt lat="46.02338816202235" lon="10.350299091661672"><ele>467.59999999999997</ele><time>2026-05-02T15:52:46.999Z</time></trkpt><trkpt lat="46.02346909371627" lon="10.350357304661808"><ele>469.4</ele><time>2026-05-02T15:52:48.999Z</time></trkpt><trkpt lat="46.02358056598103" lon="10.350456563474227"><ele>471.2</ele><time>2026-05-02T15:52:50.999Z</time></trkpt><trkpt lat="46.023674063364474" lon="10.350489209429252"><ele>473.0</ele><time>2026-05-02T15:52:52.999Z</time></trkpt><trkpt lat="46.02377866270198" lon="10.350478426868673"><ele>473.0</ele><time>2026-05-02T15:52:54.999Z</time></trkpt><trkpt lat="46.023881143512845" lon="10.35052136636323"><ele>472.99999999999994</ele><time>2026-05-02T15:52:56.999Z</time></trkpt><trkpt lat="46.02397149235786" lon="10.350545052557955"><ele>472.99999999999994</ele><time>2026-05-02T15:52:58.999Z</time></trkpt><trkpt lat="46.024071966764666" lon="10.350565324419499"><ele>473.0</ele><time>2026-05-02T15:53:00.999Z</time></trkpt><trkpt lat="46.02416312198324" lon="10.35052304341908"><ele>473.0</ele><time>2026-05-02T15:53:02.999Z</time></trkpt><trkpt lat="46.02422316908655" lon="10.350468050021727"><ele>473.8333333333333</ele><time>2026-05-02T15:53:03.999Z</time></trkpt><trkpt lat="46.02426422734018" lon="10.35039375435672"><ele>474.66666666666663</ele><time>2026-05-02T15:53:04.999Z</time></trkpt><trkpt lat="46.02433172423423" lon="10.350334821029895"><ele>475.5</ele><time>2026-05-02T15:53:05.999Z</time></trkpt><trkpt lat="46.024388502762825" lon="10.350276258050739"><ele>476.33333333333337</ele><time>2026-05-02T15:53:06.999Z</time></trkpt><trkpt lat="46.02445020875648" lon="10.35016032053529"><ele>477.1666666666667</ele><time>2026-05-02T15:53:08.999Z</time></trkpt><trkpt lat="46.02452600677419" lon="10.35007339181978"><ele>478.0</ele><time>2026-05-02T15:53:11.999Z</time></trkpt><trkpt lat="46.02458347814167" lon="10.350027570266022"><ele>478.0</ele><time>2026-05-02T15:53:12.999Z</time></trkpt><trkpt lat="46.02462084516101" lon="10.34995135780189"><ele>477.99999999999994</ele><time>2026-05-02T15:53:13.999Z</time></trkpt><trkpt lat="46.024685925505096" lon="10.349862763145133"><ele>477.99999999999994</ele><time>2026-05-02T15:53:14.999Z</time></trkpt><trkpt lat="46.02479549711872" lon="10.349805499386894"><ele>478.0</ele><time>2026-05-02T15:53:16.999Z</time></trkpt><trkpt lat="46.02487623817924" lon="10.349872432346713"><ele>478.0</ele><time>2026-05-02T15:53:19.999Z</time></trkpt><trkpt lat="46.02503724642369" lon="10.349939454022843"><ele>479.75</ele><time>2026-05-02T15:53:21.999Z</time></trkpt><trkpt lat="46.025148781977684" lon="10.349993204378627"><ele>481.5</ele><time>2026-05-02T15:53:22.999Z</time></trkpt><trkpt lat="46.02527271587068" lon="10.350050575599964"><ele>483.25</ele><time>2026-05-02T15:53:23.999Z</time></trkpt><trkpt lat="46.025383828653126" lon="10.350055487013632"><ele>485.0</ele><time>2026-05-02T15:53:24.999Z</time></trkpt><trkpt lat="46.02548709957644" lon="10.350064885740075"><ele>484.99999999999994</ele><time>2026-05-02T15:53:26.999Z</time></trkpt><trkpt lat="46.02555860814676" lon="10.350099914031182"><ele>485.0</ele><time>2026-05-02T15:53:28.999Z</time></trkpt><trkpt lat="46.025617917094" lon="10.350027845767096"><ele>485.0</ele><time>2026-05-02T15:53:50Z</time></trkpt><trkpt lat="46.02565238223417" lon="10.349929390334708"><ele>485.0</ele><time>2026-05-02T15:53:54Z</time></trkpt><trkpt lat="46.02574133863433" lon="10.349993118752133"><ele>484.99999999999994</ele><time>2026-05-02T15:53:56Z</time></trkpt><trkpt lat="46.025795179913096" lon="10.350097697729462"><ele>485.0</ele><time>2026-05-02T15:53:57Z</time></trkpt><trkpt lat="46.02585260406332" lon="10.35023277036083"><ele>485.75</ele><time>2026-05-02T15:53:58Z</time></trkpt><trkpt lat="46.025872044065075" lon="10.350347332336883"><ele>486.5</ele><time>2026-05-02T15:53:59Z</time></trkpt><trkpt lat="46.025880923959036" lon="10.350484332770314"><ele>487.25</ele><time>2026-05-02T15:54:00Z</time></trkpt><trkpt lat="46.02590148931759" lon="10.350614020499622"><ele>488.0</ele><time>2026-05-02T15:54:01Z</time></trkpt><trkpt lat="46.0260475305512" lon="10.350364107434316"><ele>487.99999999999994</ele><time>2026-05-02T15:54:02Z</time></trkpt><trkpt lat="46.02611619575474" lon="10.350382051239388"><ele>488.0</ele><time>2026-05-02T15:54:03Z</time></trkpt><trkpt lat="46.02620698443056" lon="10.350378196564032"><ele>488.0</ele><time>2026-05-02T15:54:04Z</time></trkpt><trkpt lat="46.02629139423272" lon="10.350366647306014"><ele>488.0</ele><time>2026-05-02T15:54:05Z</time></trkpt><trkpt lat="46.026356154660135" lon="10.350342979346495"><ele>487.99999999999994</ele><time>2026-05-02T15:54:06Z</time></trkpt><trkpt lat="46.026444987476424" lon="10.35028582923039"><ele>488.0</ele><time>2026-05-02T15:54:08Z</time></trkpt><trkpt lat="46.02647779485587" lon="10.350200090650919"><ele>488.0</ele><time>2026-05-02T15:54:19Z</time></trkpt><trkpt lat="46.026563085371194" lon="10.350173509940946"><ele>487.99999999999994</ele><time>2026-05-02T15:54:22Z</time></trkpt><trkpt lat="46.02661515653922" lon="10.350248908916376"><ele>487.99999999999994</ele><time>2026-05-02T15:54:24Z</time></trkpt><trkpt lat="46.02669290355878" lon="10.350324281385678"><ele>488.0</ele><time>2026-05-02T15:54:31Z</time></trkpt><trkpt lat="46.02678476027534" lon="10.350515741966932"><ele>488.0</ele><time>2026-05-02T15:54:33Z</time></trkpt><trkpt lat="46.02684040869394" lon="10.350613589415781"><ele>489.8333333333333</ele><time>2026-05-02T15:54:34Z</time></trkpt><trkpt lat="46.026882997376426" lon="10.35068861295832"><ele>491.66666666666663</ele><time>2026-05-02T15:54:35Z</time></trkpt><trkpt lat="46.02692938345999" lon="10.350750303736099"><ele>493.5</ele><time>2026-05-02T15:54:36Z</time></trkpt><trkpt lat="46.027004129978444" lon="10.350869279259676"><ele>495.33333333333337</ele><time>2026-05-02T15:54:38Z</time></trkpt><trkpt lat="46.02707997112106" lon="10.350901287614143"><ele>497.1666666666667</ele><time>2026-05-02T15:54:40Z</time></trkpt><trkpt lat="46.02714610956655" lon="10.350973595636999"><ele>499.0</ele><time>2026-05-02T15:54:41Z</time></trkpt><trkpt lat="46.02722894213759" lon="10.351035245427834"><ele>499.00000000000006</ele><time>2026-05-02T15:54:42Z</time></trkpt><trkpt lat="46.02728829751006" lon="10.351103005795535"><ele>499.0</ele><time>2026-05-02T15:54:43Z</time></trkpt><trkpt lat="46.02734987538297" lon="10.351173133378662"><ele>499.0</ele><time>2026-05-02T15:54:43.999Z</time></trkpt><trkpt lat="46.0274107758144" lon="10.351206760206265"><ele>499.0</ele><time>2026-05-02T15:54:44.999Z</time></trkpt><trkpt lat="46.02747352370008" lon="10.35122914181521"><ele>499.00000000000006</ele><time>2026-05-02T15:54:45.999Z</time></trkpt><trkpt lat="46.02757216682602" lon="10.35131592488107"><ele>499.0</ele><time>2026-05-02T15:54:47.999Z</time></trkpt><trkpt lat="46.02764143702843" lon="10.35136304875481"><ele>501.00000000000006</ele><time>2026-05-02T15:54:49.999Z</time></trkpt><trkpt lat="46.027774137590114" lon="10.3514107338582"><ele>503.0</ele><time>2026-05-02T15:54:51.999Z</time></trkpt><trkpt lat="46.027853483620696" lon="10.351424615199754"><ele>505.0</ele><time>2026-05-02T15:54:53.999Z</time></trkpt><trkpt lat="46.02792266585674" lon="10.35144634027501"><ele>507.0</ele><time>2026-05-02T15:54:56.999Z</time></trkpt><trkpt lat="46.02798294258752" lon="10.351417998758064"><ele>509.00000000000006</ele><time>2026-05-02T15:55:04.999Z</time></trkpt><trkpt lat="46.02791965333217" lon="10.351359211161165"><ele>511.0</ele><time>2026-05-02T15:55:28.999Z</time></trkpt><trkpt lat="46.027874624905" lon="10.351284903334564"><ele>508.6</ele><time>2026-05-02T15:55:34.999Z</time></trkpt><trkpt lat="46.027782439480006" lon="10.351213122320633"><ele>506.20000000000005</ele><time>2026-05-02T15:55:37.999Z</time></trkpt><trkpt lat="46.02768029605201" lon="10.351206350374362"><ele>503.79999999999995</ele><time>2026-05-02T15:55:39.999Z</time></trkpt><trkpt lat="46.02760510506102" lon="10.351124023545585"><ele>501.4</ele><time>2026-05-02T15:55:41.999Z</time></trkpt><trkpt lat="46.02752000969212" lon="10.351066247979244"><ele>499.0</ele><time>2026-05-02T15:55:43.999Z</time></trkpt><trkpt lat="46.027448473891376" lon="10.350987605190475"><ele>499.00000000000006</ele><time>2026-05-02T15:55:45.999Z</time></trkpt><trkpt lat="46.02739260920721" lon="10.35091810994447"><ele>499.0</ele><time>2026-05-02T15:55:48.999Z</time></trkpt><trkpt lat="46.02735169225619" lon="10.350832883544642"><ele>499.00000000000006</ele><time>2026-05-02T15:55:52.999Z</time></trkpt><trkpt lat="46.027292226236426" lon="10.35076981779665"><ele>499.00000000000006</ele><time>2026-05-02T15:55:54.999Z</time></trkpt><trkpt lat="46.02726008469543" lon="10.350690706804754"><ele>499.0</ele><time>2026-05-02T15:55:58Z</time></trkpt><trkpt lat="46.02719216637446" lon="10.35063509732467"><ele>499.00000000000006</ele><time>2026-05-02T15:56:06Z</time></trkpt><trkpt lat="46.027131604477724" lon="10.3505539116903"><ele>499.00000000000006</ele><time>2026-05-02T15:56:36Z</time></trkpt><trkpt lat="46.0270687428576" lon="10.350493416457137"><ele>497.1428571428572</ele><time>2026-05-02T15:56:38Z</time></trkpt><trkpt lat="46.026999331634514" lon="10.350451045772875"><ele>495.28571428571433</ele><time>2026-05-02T15:56:40Z</time></trkpt><trkpt lat="46.026959378389165" lon="10.35038062481144"><ele>493.42857142857144</ele><time>2026-05-02T15:56:42Z</time></trkpt><trkpt lat="46.02689449874153" lon="10.350323237822577"><ele>491.5714285714286</ele><time>2026-05-02T15:56:44Z</time></trkpt><trkpt lat="46.02690531795171" lon="10.350213647868888"><ele>489.7142857142858</ele><time>2026-05-02T15:56:51Z</time></trkpt><trkpt lat="46.026984577953016" lon="10.350223596500255"><ele>487.85714285714283</ele><time>2026-05-02T15:56:53Z</time></trkpt><trkpt lat="46.027048350354775" lon="10.350179504360222"><ele>486.0</ele><time>2026-05-02T15:56:56Z</time></trkpt><trkpt lat="46.02711759173596" lon="10.350112089069203"><ele>486.0</ele><time>2026-05-02T15:56:59Z</time></trkpt><trkpt lat="46.02721458316189" lon="10.350124307728105"><ele>486.0</ele><time>2026-05-02T15:57:03Z</time></trkpt><trkpt lat="46.027297207184056" lon="10.350144922559782"><ele>486.0</ele><time>2026-05-02T15:57:05Z</time></trkpt><trkpt lat="46.02737014120121" lon="10.35020082311652"><ele>486.0</ele><time>2026-05-02T15:57:07Z</time></trkpt><trkpt lat="46.027433455774045" lon="10.350251408309639"><ele>486.0</ele><time>2026-05-02T15:57:09Z</time></trkpt><trkpt lat="46.02749256669634" lon="10.350293259269923"><ele>486.0</ele><time>2026-05-02T15:57:10.999Z</time></trkpt><trkpt lat="46.02756919765087" lon="10.35033607194315"><ele>485.6666666666667</ele><time>2026-05-02T15:57:12.999Z</time></trkpt><trkpt lat="46.02765201220001" lon="10.350359629325563"><ele>485.33333333333337</ele><time>2026-05-02T15:57:14.999Z</time></trkpt><trkpt lat="46.02773259274639" lon="10.350368980776299"><ele>485.0</ele><time>2026-05-02T15:57:16.999Z</time></trkpt><trkpt lat="46.02781424989183" lon="10.350393654644023"><ele>484.6666666666667</ele><time>2026-05-02T15:57:19.999Z</time></trkpt><trkpt lat="46.02789375132227" lon="10.350416689609013"><ele>484.33333333333337</ele><time>2026-05-02T15:57:21.999Z</time></trkpt><trkpt lat="46.02795374331416" lon="10.350531925906859"><ele>484.0</ele><time>2026-05-02T15:57:23.999Z</time></trkpt><trkpt lat="46.027981649660546" lon="10.35061749728018"><ele>484.00000000000006</ele><time>2026-05-02T15:57:24.999Z</time></trkpt><trkpt lat="46.028038108225545" lon="10.35071542604454"><ele>484.0</ele><time>2026-05-02T15:57:26.999Z</time></trkpt><trkpt lat="46.02810712353648" lon="10.350718588965657"><ele>484.0</ele><time>2026-05-02T15:57:28.999Z</time></trkpt><trkpt lat="46.02818521039788" lon="10.350724017862849"><ele>484.0</ele><time>2026-05-02T15:57:30.999Z</time></trkpt><trkpt lat="46.02827294262028" lon="10.35075356262244"><ele>484.00000000000006</ele><time>2026-05-02T15:57:32.999Z</time></trkpt><trkpt lat="46.02837368269854" lon="10.35080144466157"><ele>484.0</ele><time>2026-05-02T15:57:35.999Z</time></trkpt><trkpt lat="46.02843803027001" lon="10.350837884810575"><ele>480.2</ele><time>2026-05-02T15:57:36.999Z</time></trkpt><trkpt lat="46.0285323118744" lon="10.350871155154602"><ele>476.4</ele><time>2026-05-02T15:57:37.999Z</time></trkpt><trkpt lat="46.028616003156536" lon="10.350914051929298"><ele>472.6</ele><time>2026-05-02T15:57:38.999Z</time></trkpt><trkpt lat="46.02868651385958" lon="10.351015889543575"><ele>468.8</ele><time>2026-05-02T15:57:39.999Z</time></trkpt><trkpt lat="46.02880061202615" lon="10.35101476281731"><ele>465.0</ele><time>2026-05-02T15:57:40.999Z</time></trkpt><trkpt lat="46.028923383937624" lon="10.350992092536153"><ele>465.0</ele><time>2026-05-02T15:57:41.999Z</time></trkpt><trkpt lat="46.0290106492197" lon="10.350980482585934"><ele>465.0</ele><time>2026-05-02T15:57:42.999Z</time></trkpt><trkpt lat="46.02909853381362" lon="10.35097160881856"><ele>465.0</ele><time>2026-05-02T15:57:43.999Z</time></trkpt><trkpt lat="46.029188606199696" lon="10.350964060700168"><ele>465.0</ele><time>2026-05-02T15:57:44.999Z</time></trkpt><trkpt lat="46.029270071760166" lon="10.350959718106887"><ele>465.0</ele><time>2026-05-02T15:57:45.999Z</time></trkpt><trkpt lat="46.02935617808939" lon="10.350966335013544"><ele>465.0</ele><time>2026-05-02T15:57:46.999Z</time></trkpt><trkpt lat="46.02946937315676" lon="10.350975725146284"><ele>460.75</ele><time>2026-05-02T15:57:47.999Z</time></trkpt><trkpt lat="46.02958588559658" lon="10.351038950081143"><ele>456.5</ele><time>2026-05-02T15:57:48.999Z</time></trkpt><trkpt lat="46.029673615501856" lon="10.351072677078212"><ele>452.25</ele><time>2026-05-02T15:57:49.999Z</time></trkpt><trkpt lat="46.029774911987865" lon="10.351097577740134"><ele>448.0</ele><time>2026-05-02T15:57:51.999Z</time></trkpt><trkpt lat="46.02990500571961" lon="10.351177048745281"><ele>448.00000000000006</ele><time>2026-05-02T15:57:53.999Z</time></trkpt><trkpt lat="46.02996945187947" lon="10.35121282643432"><ele>448.0</ele><time>2026-05-02T15:57:54.999Z</time></trkpt><trkpt lat="46.03007985415861" lon="10.351286868569762"><ele>448.0</ele><time>2026-05-02T15:57:56.999Z</time></trkpt><trkpt lat="46.030144091455625" lon="10.351343764363653"><ele>448.0</ele><time>2026-05-02T15:57:57.999Z</time></trkpt><trkpt lat="46.030221954733086" lon="10.351387387944746"><ele>448.00000000000006</ele><time>2026-05-02T15:57:58.999Z</time></trkpt><trkpt lat="46.030292415255424" lon="10.351485420775576"><ele>448.0</ele><time>2026-05-02T15:57:59.999Z</time></trkpt><trkpt lat="46.03036375459016" lon="10.351610033660542"><ele>450.0</ele><time>2026-05-02T15:58:00.999Z</time></trkpt><trkpt lat="46.03042188801048" lon="10.351727146847972"><ele>451.99999999999994</ele><time>2026-05-02T15:58:02Z</time></trkpt><trkpt lat="46.03048176452728" lon="10.351814692304217"><ele>453.99999999999994</ele><time>2026-05-02T15:58:03Z</time></trkpt><trkpt lat="46.0305317809072" lon="10.351906276896777"><ele>456.0</ele><time>2026-05-02T15:58:04Z</time></trkpt><trkpt lat="46.03058744412053" lon="10.352025525385208"><ele>458.0</ele><time>2026-05-02T15:58:05Z</time></trkpt><trkpt lat="46.030631424656455" lon="10.35214612041656"><ele>454.99999999999994</ele><time>2026-05-02T15:58:06Z</time></trkpt><trkpt lat="46.03066179758614" lon="10.352238818085596"><ele>452.0</ele><time>2026-05-02T15:58:07Z</time></trkpt><trkpt lat="46.0306933949265" lon="10.352339619974364"><ele>449.0</ele><time>2026-05-02T15:58:08Z</time></trkpt><trkpt lat="46.03072856666833" lon="10.35244939729655"><ele>446.0</ele><time>2026-05-02T15:58:09Z</time></trkpt><trkpt lat="46.030782723095804" lon="10.352557960868406"><ele>442.99999999999994</ele><time>2026-05-02T15:58:10Z</time></trkpt><trkpt lat="46.030851412148124" lon="10.3526539659252"><ele>440.0</ele><time>2026-05-02T15:58:11Z</time></trkpt><trkpt lat="46.030939567848634" lon="10.352733878523257"><ele>439.99999999999994</ele><time>2026-05-02T15:58:12Z</time></trkpt><trkpt lat="46.03104546613156" lon="10.352798608648648"><ele>440.0</ele><time>2026-05-02T15:58:14Z</time></trkpt><trkpt lat="46.031117297554076" lon="10.352818242044385"><ele>440.0</ele><time>2026-05-02T15:58:15Z</time></trkpt><trkpt lat="46.03119850802883" lon="10.35280517366652"><ele>440.0</ele><time>2026-05-02T15:58:17Z</time></trkpt><trkpt lat="46.031262073450264" lon="10.352772135635862"><ele>439.99999999999994</ele><time>2026-05-02T15:58:21Z</time></trkpt><trkpt lat="46.031353403119965" lon="10.352700556256611"><ele>440.0</ele><time>2026-05-02T15:58:29Z</time></trkpt><trkpt lat="46.03141167391121" lon="10.352613844556458"><ele>440.0</ele><time>2026-05-02T15:58:31Z</time></trkpt><trkpt lat="46.031467345875775" lon="10.352534251481632"><ele>440.0</ele><time>2026-05-02T15:58:34Z</time></trkpt><trkpt lat="46.03155393495322" lon="10.35273125084233"><ele>440.0</ele><time>2026-05-02T15:58:37Z</time></trkpt><trkpt lat="46.03160523871763" lon="10.352895579377973"><ele>440.0</ele><time>2026-05-02T15:58:38Z</time></trkpt><trkpt lat="46.031630742135285" lon="10.352994766530072"><ele>440.0</ele><time>2026-05-02T15:58:39Z</time></trkpt><trkpt lat="46.031742840639716" lon="10.353074643662254"><ele>439.99999999999994</ele><time>2026-05-02T15:58:41Z</time></trkpt><trkpt lat="46.031825232787" lon="10.35306934258342"><ele>440.0</ele><time>2026-05-02T15:58:42Z</time></trkpt><trkpt lat="46.031747810162265" lon="10.353197672033957"><ele>440.0</ele><time>2026-05-02T15:58:48Z</time></trkpt><trkpt lat="46.031812388092696" lon="10.353204919228054"><ele>440.0</ele><time>2026-05-02T15:58:52Z</time></trkpt><trkpt lat="46.03188945842693" lon="10.353282865387705"><ele>439.99999999999994</ele><time>2026-05-02T15:58:55Z</time></trkpt><trkpt lat="46.03196627083861" lon="10.353330142630394"><ele>440.0</ele><time>2026-05-02T15:58:57Z</time></trkpt><trkpt lat="46.03206521648706" lon="10.35335311785083"><ele>440.0</ele><time>2026-05-02T15:58:58Z</time></trkpt><trkpt lat="46.032116698998394" lon="10.353416811602063"><ele>440.0</ele><time>2026-05-02T15:58:59Z</time></trkpt><trkpt lat="46.03197788721425" lon="10.353136537159434"><ele>440.0</ele><time>2026-05-02T15:59:02Z</time></trkpt><trkpt lat="46.03189839976295" lon="10.35312167313211"><ele>440.0</ele><time>2026-05-02T15:59:03Z</time></trkpt><trkpt lat="46.03182904323487" lon="10.353102702065351"><ele>439.99999999999994</ele><time>2026-05-02T15:59:06Z</time></trkpt><trkpt lat="46.03189184802" lon="10.353088637226925"><ele>440.0</ele><time>2026-05-02T15:59:16Z</time></trkpt><trkpt lat="46.031997110791764" lon="10.353123895942163"><ele>440.0</ele><time>2026-05-02T15:59:18Z</time></trkpt><trkpt lat="46.03207225995189" lon="10.353119393001093"><ele>440.0</ele><time>2026-05-02T15:59:19Z</time></trkpt><trkpt lat="46.032156039142706" lon="10.35313546616305"><ele>439.99999999999994</ele><time>2026-05-02T15:59:20Z</time></trkpt><trkpt lat="46.0322508886569" lon="10.353147480885589"><ele>440.0</ele><time>2026-05-02T15:59:21Z</time></trkpt><trkpt lat="46.03237399115223" lon="10.353171564833366"><ele>438.6</ele><time>2026-05-02T15:59:22Z</time></trkpt><trkpt lat="46.032479563535084" lon="10.353171909962805"><ele>437.2</ele><time>2026-05-02T15:59:23Z</time></trkpt><trkpt lat="46.03256442908759" lon="10.353184057753513"><ele>435.79999999999995</ele><time>2026-05-02T15:59:23.999Z</time></trkpt><trkpt lat="46.032624242052165" lon="10.353147095349195"><ele>434.4</ele><time>2026-05-02T15:59:24.999Z</time></trkpt><trkpt lat="46.03268600800991" lon="10.353286612391226"><ele>433.0</ele><time>2026-05-02T15:59:28.999Z</time></trkpt><trkpt lat="46.03268063370938" lon="10.353453142090416"><ele>433.00000000000006</ele><time>2026-05-02T15:59:35.999Z</time></trkpt><trkpt lat="46.03264947683745" lon="10.3535688616378"><ele>433.0</ele><time>2026-05-02T15:59:36.999Z</time></trkpt><trkpt lat="46.03263189274116" lon="10.353669666588484"><ele>433.0</ele><time>2026-05-02T15:59:38.999Z</time></trkpt><trkpt lat="46.03275211550882" lon="10.353760690163611"><ele>433.0</ele><time>2026-05-02T15:59:40.999Z</time></trkpt><trkpt lat="46.032812305039904" lon="10.353800535546046"><ele>433.00000000000006</ele><time>2026-05-02T15:59:41.999Z</time></trkpt><trkpt lat="46.03287687350363" lon="10.353763756278576"><ele>433.0</ele><time>2026-05-02T15:59:43.999Z</time></trkpt><trkpt lat="46.03294525850041" lon="10.353789026716063"><ele>435.0</ele><time>2026-05-02T15:59:44.999Z</time></trkpt><trkpt lat="46.03283809395106" lon="10.353968200348385"><ele>436.99999999999994</ele><time>2026-05-02T15:59:45.999Z</time></trkpt><trkpt lat="46.03285802959459" lon="10.354056367665923"><ele>438.99999999999994</ele><time>2026-05-02T15:59:46.999Z</time></trkpt><trkpt lat="46.032864258345036" lon="10.354190040525323"><ele>441.0</ele><time>2026-05-02T15:59:48.999Z</time></trkpt><trkpt lat="46.032911957607205" lon="10.354348274917232"><ele>443.0</ele><time>2026-05-02T15:59:50.999Z</time></trkpt><trkpt lat="46.032972968972196" lon="10.354403849888191"><ele>442.99999999999994</ele><time>2026-05-02T15:59:51.999Z</time></trkpt><trkpt lat="46.033045374773614" lon="10.354452082299085"><ele>443.0</ele><time>2026-05-02T15:59:52.999Z</time></trkpt><trkpt lat="46.03310467507379" lon="10.354521537322382"><ele>443.0</ele><time>2026-05-02T15:59:53.999Z</time></trkpt><trkpt lat="46.03314895754187" lon="10.35466380678819"><ele>443.0</ele><time>2026-05-02T15:59:55.999Z</time></trkpt><trkpt lat="46.03318349446853" lon="10.354754555528217"><ele>442.99999999999994</ele><time>2026-05-02T15:59:56.999Z</time></trkpt><trkpt lat="46.03322224960745" lon="10.354843460221414"><ele>443.0</ele><time>2026-05-02T15:59:57.999Z</time></trkpt><trkpt lat="46.033276002645884" lon="10.35493231443801"><ele>445.3333333333333</ele><time>2026-05-02T15:59:58.999Z</time></trkpt><trkpt lat="46.03334576515771" lon="10.35499440949368"><ele>447.66666666666663</ele><time>2026-05-02T15:59:59.999Z</time></trkpt><trkpt lat="46.03341886429287" lon="10.355014106995002"><ele>450.0</ele><time>2026-05-02T16:00:00.999Z</time></trkpt><trkpt lat="46.033463973114685" lon="10.355096988944238"><ele>452.33333333333337</ele><time>2026-05-02T16:00:01.999Z</time></trkpt><trkpt lat="46.03351220274942" lon="10.355165616997269"><ele>454.6666666666667</ele><time>2026-05-02T16:00:02.999Z</time></trkpt><trkpt lat="46.033589840370865" lon="10.355272656309578"><ele>457.0</ele><time>2026-05-02T16:00:04.999Z</time></trkpt><trkpt lat="46.033647461768226" lon="10.355322695906397"><ele>457.00000000000006</ele><time>2026-05-02T16:00:05.999Z</time></trkpt><trkpt lat="46.033706750462805" lon="10.355390056213404"><ele>457.0</ele><time>2026-05-02T16:00:08Z</time></trkpt><trkpt lat="46.03379311086704" lon="10.355476558230427"><ele>457.0</ele><time>2026-05-02T16:00:10Z</time></trkpt><trkpt lat="46.033868911943856" lon="10.355514901181907"><ele>457.0</ele><time>2026-05-02T16:00:11Z</time></trkpt><trkpt lat="46.03394901248968" lon="10.355555598051431"><ele>457.00000000000006</ele><time>2026-05-02T16:00:12Z</time></trkpt><trkpt lat="46.0340325223262" lon="10.355602680070726"><ele>457.0</ele><time>2026-05-02T16:00:13Z</time></trkpt><trkpt lat="46.03409382009095" lon="10.355649910803942"><ele>458.8</ele><time>2026-05-02T16:00:14Z</time></trkpt><trkpt lat="46.03418152739052" lon="10.35577120205942"><ele>460.6</ele><time>2026-05-02T16:00:16Z</time></trkpt><trkpt lat="46.0342376980965" lon="10.355836958682156"><ele>462.40000000000003</ele><time>2026-05-02T16:00:17Z</time></trkpt><trkpt lat="46.03431715177213" lon="10.355900575135504"><ele>464.20000000000005</ele><time>2026-05-02T16:00:18Z</time></trkpt><trkpt lat="46.03441287479318" lon="10.355923422188768"><ele>466.0</ele><time>2026-05-02T16:00:19Z</time></trkpt><trkpt lat="46.034487221328874" lon="10.355949643529556"><ele>466.00000000000006</ele><time>2026-05-02T16:00:20Z</time></trkpt><trkpt lat="46.034569694639146" lon="10.355950734515531"><ele>466.0</ele><time>2026-05-02T16:00:21Z</time></trkpt><trkpt lat="46.034657706837976" lon="10.35596931005941"><ele>466.0</ele><time>2026-05-02T16:00:23Z</time></trkpt><trkpt lat="46.034776017368166" lon="10.355979512265188"><ele>466.0</ele><time>2026-05-02T16:00:25Z</time></trkpt><trkpt lat="46.034846962021376" lon="10.355990293924927"><ele>466.00000000000006</ele><time>2026-05-02T16:00:26Z</time></trkpt><trkpt lat="46.03491576541282" lon="10.356000750132903"><ele>466.0</ele><time>2026-05-02T16:00:27Z</time></trkpt><trkpt lat="46.03505164150469" lon="10.356021646090046"><ele>463.4</ele><time>2026-05-02T16:00:29Z</time></trkpt><trkpt lat="46.03513461843095" lon="10.356035832406112"><ele>460.8</ele><time>2026-05-02T16:00:30Z</time></trkpt><trkpt lat="46.035212270618935" lon="10.356049788938279"><ele>458.19999999999993</ele><time>2026-05-02T16:00:31Z</time></trkpt><trkpt lat="46.03529619929578" lon="10.35606487356524"><ele>455.59999999999997</ele><time>2026-05-02T16:00:32Z</time></trkpt><trkpt lat="46.03540769659591" lon="10.35608775625681"><ele>453.0</ele><time>2026-05-02T16:00:34Z</time></trkpt><trkpt lat="46.03553691215377" lon="10.356116244383701"><ele>453.0</ele><time>2026-05-02T16:00:36Z</time></trkpt><trkpt lat="46.03563741504253" lon="10.356155700073677"><ele>452.99999999999994</ele><time>2026-05-02T16:00:38Z</time></trkpt><trkpt lat="46.0357026682292" lon="10.356169279139356"><ele>452.99999999999994</ele><time>2026-05-02T16:00:39Z</time></trkpt><trkpt lat="46.035803479549706" lon="10.3562007029736"><ele>453.0</ele><time>2026-05-02T16:00:42Z</time></trkpt><trkpt lat="46.035893056468396" lon="10.35622759154263"><ele>453.0</ele><time>2026-05-02T16:00:43Z</time></trkpt><trkpt lat="46.03597961123099" lon="10.356252515047652"><ele>454.79999999999995</ele><time>2026-05-02T16:00:44Z</time></trkpt><trkpt lat="46.036043923866764" lon="10.356271033867708"><ele>456.59999999999997</ele><time>2026-05-02T16:00:45Z</time></trkpt><trkpt lat="46.03610621470595" lon="10.356288970532777"><ele>458.40000000000003</ele><time>2026-05-02T16:00:46Z</time></trkpt><trkpt lat="46.036148950298966" lon="10.356448126224526"><ele>460.20000000000005</ele><time>2026-05-02T16:00:54Z</time></trkpt><trkpt lat="46.03618066937639" lon="10.35660453703341"><ele>462.0</ele><time>2026-05-02T16:00:56Z</time></trkpt><trkpt lat="46.036250086158105" lon="10.356711409300921"><ele>464.8333333333333</ele><time>2026-05-02T16:00:58Z</time></trkpt><trkpt lat="46.03631423762715" lon="10.356751216018433"><ele>467.66666666666663</ele><time>2026-05-02T16:01:00Z</time></trkpt><trkpt lat="46.03641045390293" lon="10.356724715140919"><ele>470.5</ele><time>2026-05-02T16:01:02Z</time></trkpt><trkpt lat="46.03652504361877" lon="10.356699959521213"><ele>473.3333333333333</ele><time>2026-05-02T16:01:04Z</time></trkpt><trkpt lat="46.03662217577655" lon="10.356694789655648"><ele>476.16666666666663</ele><time>2026-05-02T16:01:06Z</time></trkpt><trkpt lat="46.03668713620764" lon="10.356693650218052"><ele>479.0</ele><time>2026-05-02T16:01:07Z</time></trkpt><trkpt lat="46.03680879398404" lon="10.356703540903847"><ele>480.3333333333333</ele><time>2026-05-02T16:01:09Z</time></trkpt><trkpt lat="46.036895784022065" lon="10.356740482045753"><ele>481.66666666666663</ele><time>2026-05-02T16:01:11Z</time></trkpt><trkpt lat="46.0369583896502" lon="10.356721385318195"><ele>483.0</ele><time>2026-05-02T16:01:13Z</time></trkpt><trkpt lat="46.03704458714423" lon="10.356672382146533"><ele>484.33333333333337</ele><time>2026-05-02T16:01:15Z</time></trkpt><trkpt lat="46.03709592483984" lon="10.356732993724098"><ele>485.6666666666667</ele><time>2026-05-02T16:01:28Z</time></trkpt><trkpt lat="46.03716221112984" lon="10.35674857527735"><ele>487.0</ele><time>2026-05-02T16:01:30Z</time></trkpt><trkpt lat="46.03725363410949" lon="10.35673799152321"><ele>487.00000000000006</ele><time>2026-05-02T16:01:32Z</time></trkpt><trkpt lat="46.0373208078515" lon="10.35676552629927"><ele>487.0</ele><time>2026-05-02T16:01:34Z</time></trkpt><trkpt lat="46.03738224105018" lon="10.356814551664591"><ele>487.0</ele><time>2026-05-02T16:01:36Z</time></trkpt><trkpt lat="46.03744196625492" lon="10.35688147316948"><ele>487.0</ele><time>2026-05-02T16:01:38Z</time></trkpt><trkpt lat="46.03753540660072" lon="10.356931841761915"><ele>487.00000000000006</ele><time>2026-05-02T16:01:40Z</time></trkpt><trkpt lat="46.03761987450632" lon="10.35694766030523"><ele>487.0</ele><time>2026-05-02T16:01:42Z</time></trkpt><trkpt lat="46.03768564355567" lon="10.356948495189263"><ele>489.8571428571429</ele><time>2026-05-02T16:02:06.999Z</time></trkpt><trkpt lat="46.03775065886779" lon="10.356944003704427"><ele>492.71428571428567</ele><time>2026-05-02T16:03:14Z</time></trkpt><trkpt lat="46.037832510133775" lon="10.356943167562221"><ele>495.57142857142856</ele><time>2026-05-02T16:03:17Z</time></trkpt><trkpt lat="46.03789887627756" lon="10.356922135951214"><ele>498.42857142857144</ele><time>2026-05-02T16:03:20Z</time></trkpt><trkpt lat="46.037961950872216" lon="10.35691198767315"><ele>501.28571428571433</ele><time>2026-05-02T16:03:23Z</time></trkpt><trkpt lat="46.038033381936465" lon="10.35688787299828"><ele>504.1428571428571</ele><time>2026-05-02T16:03:25Z</time></trkpt><trkpt lat="46.0381123819435" lon="10.356883974095066"><ele>507.0</ele><time>2026-05-02T16:03:27Z</time></trkpt><trkpt lat="46.03819509266664" lon="10.35686673347516"><ele>507.0</ele><time>2026-05-02T16:03:29Z</time></trkpt><trkpt lat="46.03828186404212" lon="10.356891696116953"><ele>507.0</ele><time>2026-05-02T16:03:31Z</time></trkpt><trkpt lat="46.03835189162177" lon="10.356880563277993"><ele>507.0</ele><time>2026-05-02T16:03:33Z</time></trkpt><trkpt lat="46.03841530698527" lon="10.35683554249083"><ele>507.0</ele><time>2026-05-02T16:03:35Z</time></trkpt><trkpt lat="46.038499464024575" lon="10.356809014488666"><ele>507.0</ele><time>2026-05-02T16:03:38Z</time></trkpt><trkpt lat="46.03857639729307" lon="10.356828501469476"><ele>507.0</ele><time>2026-05-02T16:04:34Z</time></trkpt><trkpt lat="46.03867932447541" lon="10.356852308995078"><ele>507.8</ele><time>2026-05-02T16:04:37Z</time></trkpt><trkpt lat="46.0387545891791" lon="10.356903486391696"><ele>508.6</ele><time>2026-05-02T16:04:39Z</time></trkpt><trkpt lat="46.03883795189952" lon="10.356915612684729"><ele>509.40000000000003</ele><time>2026-05-02T16:04:41Z</time></trkpt><trkpt lat="46.03892923694356" lon="10.35694099270788"><ele>510.20000000000005</ele><time>2026-05-02T16:04:43Z</time></trkpt><trkpt lat="46.0390413423961" lon="10.356965108151405"><ele>511.0</ele><time>2026-05-02T16:04:45Z</time></trkpt><trkpt lat="46.039148189336615" lon="10.35696412014442"><ele>511.0</ele><time>2026-05-02T16:04:47Z</time></trkpt><trkpt lat="46.039235383366524" lon="10.357009400660937"><ele>511.0</ele><time>2026-05-02T16:04:49Z</time></trkpt><trkpt lat="46.03931540339823" lon="10.357032509133607"><ele>511.0</ele><time>2026-05-02T16:04:50Z</time></trkpt><trkpt lat="46.039398605473735" lon="10.357067838207318"><ele>511.0</ele><time>2026-05-02T16:04:52Z</time></trkpt><trkpt lat="46.03951511917384" lon="10.357143171916908"><ele>511.0</ele><time>2026-05-02T16:04:54Z</time></trkpt><trkpt lat="46.03957877025946" lon="10.357176443223985"><ele>511.00000000000006</ele><time>2026-05-02T16:04:55Z</time></trkpt><trkpt lat="46.0396736331341" lon="10.357190580522369"><ele>511.0</ele><time>2026-05-02T16:04:57Z</time></trkpt><trkpt lat="46.03975130184758" lon="10.357192525577606"><ele>511.0</ele><time>2026-05-02T16:04:58Z</time></trkpt><trkpt lat="46.03983728999457" lon="10.3571868777787"><ele>511.0</ele><time>2026-05-02T16:04:59Z</time></trkpt><trkpt lat="46.03989716808199" lon="10.357157908225439"><ele>511.00000000000006</ele><time>2026-05-02T16:05:00Z</time></trkpt><trkpt lat="46.04001597513877" lon="10.35720979977924"><ele>511.0</ele><time>2026-05-02T16:05:02Z</time></trkpt><trkpt lat="46.04010508201059" lon="10.357221408327822"><ele>519.5</ele><time>2026-05-02T16:05:04Z</time></trkpt><trkpt lat="46.04020942868567" lon="10.357233583481081"><ele>528.0</ele><time>2026-05-02T16:05:06Z</time></trkpt><trkpt lat="46.040281032011535" lon="10.357261384372103"><ele>536.5</ele><time>2026-05-02T16:05:07Z</time></trkpt><trkpt lat="46.04034444408998" lon="10.357275106816125"><ele>545.0</ele><time>2026-05-02T16:05:08Z</time></trkpt><trkpt lat="46.04041371530153" lon="10.357271374480433"><ele>553.5</ele><time>2026-05-02T16:05:09Z</time></trkpt><trkpt lat="46.04047801836047" lon="10.357260250725194"><ele>562.0</ele><time>2026-05-02T16:05:10Z</time></trkpt><trkpt lat="46.04056574035657" lon="10.357251932651165"><ele>562.0</ele><time>2026-05-02T16:05:12Z</time></trkpt><trkpt lat="46.04063161385648" lon="10.357217406261823"><ele>562.0</ele><time>2026-05-02T16:05:13Z</time></trkpt><trkpt lat="46.04070510938823" lon="10.357157712181662"><ele>562.0</ele><time>2026-05-02T16:05:15Z</time></trkpt><trkpt lat="46.040789032044366" lon="10.357073474803977"><ele>562.0</ele><time>2026-05-02T16:05:17Z</time></trkpt><trkpt lat="46.0408688235767" lon="10.356971935796382"><ele>562.0</ele><time>2026-05-02T16:05:19Z</time></trkpt><trkpt lat="46.0409314086299" lon="10.356930959112656"><ele>562.0</ele><time>2026-05-02T16:05:20Z</time></trkpt><trkpt lat="46.04097510299951" lon="10.356863964610858"><ele>558.8333333333334</ele><time>2026-05-02T16:05:21Z</time></trkpt><trkpt lat="46.04098303515428" lon="10.356767571942546"><ele>555.6666666666667</ele><time>2026-05-02T16:05:23Z</time></trkpt><trkpt lat="46.041019344529055" lon="10.356676246201431"><ele>552.5</ele><time>2026-05-02T16:05:25Z</time></trkpt><trkpt lat="46.041084395669266" lon="10.356674326502835"><ele>549.3333333333334</ele><time>2026-05-02T16:05:27Z</time></trkpt><trkpt lat="46.041143921794756" lon="10.35672678758389"><ele>546.1666666666666</ele><time>2026-05-02T16:05:29Z</time></trkpt><trkpt lat="46.0411894519709" lon="10.356809137536196"><ele>543.0</ele><time>2026-05-02T16:05:32Z</time></trkpt><trkpt lat="46.041240417791265" lon="10.356956460254127"><ele>543.0</ele><time>2026-05-02T16:05:34Z</time></trkpt><trkpt lat="46.04126733309169" lon="10.357058415800314"><ele>543.0</ele><time>2026-05-02T16:05:36Z</time></trkpt><trkpt lat="46.041292935367174" lon="10.357174611291368"><ele>543.0</ele><time>2026-05-02T16:05:38Z</time></trkpt><trkpt lat="46.041331269034956" lon="10.35727510691669"><ele>543.0</ele><time>2026-05-02T16:05:40Z</time></trkpt><trkpt lat="46.04133810708767" lon="10.35737470471824"><ele>543.0</ele><time>2026-05-02T16:05:43Z</time></trkpt><trkpt lat="46.041244954492015" lon="10.357452299181281"><ele>543.0</ele><time>2026-05-02T16:05:45Z</time></trkpt><trkpt lat="46.041163188602965" lon="10.357520397797144"><ele>549.0</ele><time>2026-05-02T16:05:47Z</time></trkpt><trkpt lat="46.04107142295813" lon="10.357573806830942"><ele>555.0</ele><time>2026-05-02T16:05:49Z</time></trkpt><trkpt lat="46.041029525888824" lon="10.357645644155511"><ele>561.0</ele><time>2026-05-02T16:05:51Z</time></trkpt><trkpt lat="46.04111914403889" lon="10.35773360312648"><ele>567.0</ele><time>2026-05-02T16:06:20.999Z</time></trkpt><trkpt lat="46.041223237399116" lon="10.357788983988764"><ele>573.0</ele><time>2026-05-02T16:06:22.999Z</time></trkpt><trkpt lat="46.041318320832026" lon="10.357798975952937"><ele>573.0</ele><time>2026-05-02T16:06:24.999Z</time></trkpt><trkpt lat="46.04141178179784" lon="10.357790693935836"><ele>573.0</ele><time>2026-05-02T16:06:27.001Z</time></trkpt><trkpt lat="46.04150354906781" lon="10.357759609214163"><ele>573.0</ele><time>2026-05-02T16:06:29.001Z</time></trkpt><trkpt lat="46.04158602257489" lon="10.357677604457518"><ele>573.0</ele><time>2026-05-02T16:06:31.001Z</time></trkpt><trkpt lat="46.041674764444686" lon="10.357611154474144"><ele>573.0</ele><time>2026-05-02T16:06:33.001Z</time></trkpt><trkpt lat="46.04173642077399" lon="10.357592549391436"><ele>576.8</ele><time>2026-05-02T16:06:35.001Z</time></trkpt><trkpt lat="46.041804074408624" lon="10.357647790032177"><ele>580.5999999999999</ele><time>2026-05-02T16:06:37.001Z</time></trkpt><trkpt lat="46.041892228250795" lon="10.357663396967281"><ele>584.4000000000001</ele><time>2026-05-02T16:06:39.001Z</time></trkpt><trkpt lat="46.041998322798484" lon="10.357630590905465"><ele>588.2</ele><time>2026-05-02T16:06:41Z</time></trkpt><trkpt lat="46.042060922010826" lon="10.357641237034757"><ele>592.0</ele><time>2026-05-02T16:06:42Z</time></trkpt><trkpt lat="46.042192989481556" lon="10.357643636179526"><ele>592.0</ele><time>2026-05-02T16:06:44Z</time></trkpt><trkpt lat="46.04226325152674" lon="10.357620496961419"><ele>592.0</ele><time>2026-05-02T16:06:45Z</time></trkpt><trkpt lat="46.04232623407852" lon="10.357626298328356"><ele>592.0</ele><time>2026-05-02T16:06:46Z</time></trkpt><trkpt lat="46.04239205950517" lon="10.357649324441711"><ele>592.0</ele><time>2026-05-02T16:06:48Z</time></trkpt><trkpt lat="46.042478577751325" lon="10.35771109789999"><ele>592.0</ele><time>2026-05-02T16:06:50Z</time></trkpt><trkpt lat="46.04256531926308" lon="10.35779226742831"><ele>592.0</ele><time>2026-05-02T16:06:52Z</time></trkpt><trkpt lat="46.042620680331495" lon="10.357847401348682"><ele>592.5</ele><time>2026-05-02T16:06:54Z</time></trkpt><trkpt lat="46.04269536553426" lon="10.357921780133394"><ele>593.0</ele><time>2026-05-02T16:06:57Z</time></trkpt><trkpt lat="46.04277203165755" lon="10.357998123964444"><ele>593.5</ele><time>2026-05-02T16:06:59Z</time></trkpt><trkpt lat="46.04287567205705" lon="10.35801035945853"><ele>594.0</ele><time>2026-05-02T16:07:01Z</time></trkpt><trkpt lat="46.04294896037173" lon="10.358049376607228"><ele>594.5</ele><time>2026-05-02T16:07:02Z</time></trkpt><trkpt lat="46.04300815117837" lon="10.358106426339226"><ele>595.0</ele><time>2026-05-02T16:07:03Z</time></trkpt><trkpt lat="46.04307323495012" lon="10.358140977403151"><ele>594.7142857142857</ele><time>2026-05-02T16:07:04Z</time></trkpt><trkpt lat="46.043146145864846" lon="10.358201930765176"><ele>594.4285714285714</ele><time>2026-05-02T16:07:06Z</time></trkpt><trkpt lat="46.04319631479256" lon="10.35827182360247"><ele>594.1428571428571</ele><time>2026-05-02T16:07:08Z</time></trkpt><trkpt lat="46.043228566170576" lon="10.358366600544045"><ele>593.8571428571429</ele><time>2026-05-02T16:07:09Z</time></trkpt><trkpt lat="46.043273300109966" lon="10.358448096859206"><ele>593.5714285714286</ele><time>2026-05-02T16:07:10Z</time></trkpt><trkpt lat="46.04330773490216" lon="10.358535249712405"><ele>593.2857142857142</ele><time>2026-05-02T16:07:11Z</time></trkpt><trkpt lat="46.0433349710597" lon="10.358633507070989"><ele>593.0</ele><time>2026-05-02T16:07:12Z</time></trkpt><trkpt lat="46.043357879010195" lon="10.358749785743159"><ele>593.0</ele><time>2026-05-02T16:07:13Z</time></trkpt><trkpt lat="46.04340637894674" lon="10.358848228245952"><ele>593.0</ele><time>2026-05-02T16:07:14Z</time></trkpt><trkpt lat="46.04347343135547" lon="10.358983341851836"><ele>593.0</ele><time>2026-05-02T16:07:16Z</time></trkpt><trkpt lat="46.04352691603397" lon="10.359083170330955"><ele>593.0</ele><time>2026-05-02T16:07:18Z</time></trkpt><trkpt lat="46.04356991558785" lon="10.35916398731224"><ele>593.0</ele><time>2026-05-02T16:07:19Z</time></trkpt><trkpt lat="46.04365232833402" lon="10.359223225256843"><ele>593.0</ele><time>2026-05-02T16:07:21Z</time></trkpt><trkpt lat="46.04364562049981" lon="10.359329734183273"><ele>597.6666666666666</ele><time>2026-05-02T16:07:23Z</time></trkpt><trkpt lat="46.0436436891593" lon="10.359475424935754"><ele>602.3333333333333</ele><time>2026-05-02T16:07:25Z</time></trkpt><trkpt lat="46.04363899258692" lon="10.35956945816395"><ele>607.0</ele><time>2026-05-02T16:07:26Z</time></trkpt><trkpt lat="46.04363900500887" lon="10.359670991132457"><ele>611.6666666666666</ele><time>2026-05-02T16:07:27Z</time></trkpt><trkpt lat="46.04364693237612" lon="10.359793426018042"><ele>616.3333333333334</ele><time>2026-05-02T16:07:29Z</time></trkpt><trkpt lat="46.043712175696896" lon="10.359922259803675"><ele>621.0</ele><time>2026-05-02T16:07:31Z</time></trkpt><trkpt lat="46.04379544936203" lon="10.360006387940514"><ele>619.6666666666666</ele><time>2026-05-02T16:07:33Z</time></trkpt><trkpt lat="46.04385700836872" lon="10.360048315293604"><ele>618.3333333333334</ele><time>2026-05-02T16:07:34Z</time></trkpt><trkpt lat="46.043928078179675" lon="10.36009006343224"><ele>617.0</ele><time>2026-05-02T16:07:35Z</time></trkpt><trkpt lat="46.044026373899634" lon="10.360133676542356"><ele>615.6666666666667</ele><time>2026-05-02T16:07:37Z</time></trkpt><trkpt lat="46.04411628210767" lon="10.360208554833315"><ele>614.3333333333334</ele><time>2026-05-02T16:07:39Z</time></trkpt><trkpt lat="46.04416929456337" lon="10.360291526324751"><ele>613.0</ele><time>2026-05-02T16:07:40Z</time></trkpt><trkpt lat="46.044227751059864" lon="10.360369076751413"><ele>613.0</ele><time>2026-05-02T16:07:41Z</time></trkpt><trkpt lat="46.04431150662902" lon="10.360461686071966"><ele>613.0</ele><time>2026-05-02T16:07:43Z</time></trkpt><trkpt lat="46.04438543492485" lon="10.360569520232339"><ele>613.0</ele><time>2026-05-02T16:07:45Z</time></trkpt><trkpt lat="46.04447311760363" lon="10.36062349128745"><ele>613.0</ele><time>2026-05-02T16:07:47Z</time></trkpt><trkpt lat="46.04457163286921" lon="10.360662101364925"><ele>613.0</ele><time>2026-05-02T16:07:49Z</time></trkpt><trkpt lat="46.044661317386684" lon="10.360690752223007"><ele>613.8</ele><time>2026-05-02T16:07:50Z</time></trkpt><trkpt lat="46.04473601792415" lon="10.360704224373045"><ele>614.5999999999999</ele><time>2026-05-02T16:07:51Z</time></trkpt><trkpt lat="46.044828532371604" lon="10.36068750788506"><ele>615.4000000000001</ele><time>2026-05-02T16:07:53Z</time></trkpt><trkpt lat="46.044919728585704" lon="10.360746434301713"><ele>616.2</ele><time>2026-05-02T16:07:55Z</time></trkpt><trkpt lat="46.04497744334694" lon="10.360826198731338"><ele>617.0</ele><time>2026-05-02T16:07:56Z</time></trkpt><trkpt lat="46.04505764033797" lon="10.360932967477863"><ele>617.0</ele><time>2026-05-02T16:07:57Z</time></trkpt><trkpt lat="46.04514011825067" lon="10.360954442426602"><ele>617.0</ele><time>2026-05-02T16:07:58Z</time></trkpt><trkpt lat="46.04519964928933" lon="10.36102287410238"><ele>617.0</ele><time>2026-05-02T16:07:59Z</time></trkpt><trkpt lat="46.045259634151506" lon="10.361057601413561"><ele>617.0</ele><time>2026-05-02T16:07:59.999Z</time></trkpt><trkpt lat="46.04537570637666" lon="10.361114179957065"><ele>617.0</ele><time>2026-05-02T16:08:01.999Z</time></trkpt><trkpt lat="46.045448538987316" lon="10.361172017615202"><ele>617.0</ele><time>2026-05-02T16:08:03.999Z</time></trkpt><trkpt lat="46.045497391028874" lon="10.361273083302446"><ele>619.6666666666666</ele><time>2026-05-02T16:08:05.999Z</time></trkpt><trkpt lat="46.04554829220793" lon="10.361443898374317"><ele>622.3333333333333</ele><time>2026-05-02T16:08:07.999Z</time></trkpt><trkpt lat="46.04561203653793" lon="10.361534416704119"><ele>625.0</ele><time>2026-05-02T16:08:10.999Z</time></trkpt><trkpt lat="46.045663025572246" lon="10.36160598754408"><ele>627.6666666666666</ele><time>2026-05-02T16:08:12.999Z</time></trkpt><trkpt lat="46.04569667165322" lon="10.361708797020832"><ele>630.3333333333334</ele><time>2026-05-02T16:08:15.999Z</time></trkpt><trkpt lat="46.04571899879404" lon="10.361794782573515"><ele>633.0</ele><time>2026-05-02T16:08:17.999Z</time></trkpt><trkpt lat="46.04575311534631" lon="10.361878168182812"><ele>631.8</ele><time>2026-05-02T16:08:18.999Z</time></trkpt><trkpt lat="46.04580317235599" lon="10.361953419453991"><ele>630.5999999999999</ele><time>2026-05-02T16:08:20.999Z</time></trkpt><trkpt lat="46.045810120979894" lon="10.362114928822285"><ele>629.4000000000001</ele><time>2026-05-02T16:08:29.999Z</time></trkpt><trkpt lat="46.04580182630208" lon="10.362316224318198"><ele>628.2</ele><time>2026-05-02T16:08:32.001Z</time></trkpt><trkpt lat="46.04581392037499" lon="10.362438436623787"><ele>627.0</ele><time>2026-05-02T16:08:33.001Z</time></trkpt><trkpt lat="46.045763927908524" lon="10.362569215324655"><ele>627.0</ele><time>2026-05-02T16:08:35.001Z</time></trkpt><trkpt lat="46.04581607473796" lon="10.362379692333398"><ele>627.0</ele><time>2026-05-02T16:08:50Z</time></trkpt><trkpt lat="46.04580286112682" lon="10.362277833735096"><ele>627.0</ele><time>2026-05-02T16:08:52Z</time></trkpt><trkpt lat="46.0458106787271" lon="10.3621504493552"><ele>627.0</ele><time>2026-05-02T16:08:55Z</time></trkpt><trkpt lat="46.045794214178215" lon="10.362048912645454"><ele>627.0</ele><time>2026-05-02T16:08:59Z</time></trkpt><trkpt lat="46.045899166754204" lon="10.362127670519689"><ele>627.0</ele><time>2026-05-02T16:09:05Z</time></trkpt><trkpt lat="46.04595472896527" lon="10.362202373529174"><ele>627.0</ele><time>2026-05-02T16:09:07Z</time></trkpt><trkpt lat="46.04600218271644" lon="10.36226952229281"><ele>627.0</ele><time>2026-05-02T16:09:09Z</time></trkpt><trkpt lat="46.04605343756509" lon="10.3623629661271"><ele>627.0</ele><time>2026-05-02T16:09:11Z</time></trkpt><trkpt lat="46.0461123779774" lon="10.362432731807182"><ele>627.0</ele><time>2026-05-02T16:09:13Z</time></trkpt><trkpt lat="46.04618013495327" lon="10.362497101079763"><ele>627.0</ele><time>2026-05-02T16:09:15Z</time></trkpt><trkpt lat="46.04622452129206" lon="10.362577702517129"><ele>627.0</ele><time>2026-05-02T16:09:18Z</time></trkpt><trkpt lat="46.04625840460706" lon="10.362661688288844"><ele>627.0</ele><time>2026-05-02T16:09:21Z</time></trkpt><trkpt lat="46.04621861895289" lon="10.362576424945429"><ele>627.0</ele><time>2026-05-02T16:09:56.999Z</time></trkpt><trkpt lat="46.04616012860827" lon="10.362347953298439"><ele>627.0</ele><time>2026-05-02T16:11:32Z</time></trkpt><trkpt lat="46.04611939715539" lon="10.36222125677353"><ele>627.0</ele><time>2026-05-02T16:11:33Z</time></trkpt><trkpt lat="46.046105710776246" lon="10.362087616258155"><ele>625.2</ele><time>2026-05-02T16:11:34Z</time></trkpt><trkpt lat="46.04604392487828" lon="10.361968101965102"><ele>623.4000000000001</ele><time>2026-05-02T16:11:35Z</time></trkpt><trkpt lat="46.04594149121108" lon="10.361921231496934"><ele>621.5999999999999</ele><time>2026-05-02T16:11:37Z</time></trkpt><trkpt lat="46.04587466271996" lon="10.361939272959084"><ele>619.8</ele><time>2026-05-02T16:11:40Z</time></trkpt><trkpt lat="46.04582404898736" lon="10.362010307964344"><ele>618.0</ele><time>2026-05-02T16:11:45.999Z</time></trkpt><trkpt lat="46.04582898903702" lon="10.362154171196334"><ele>619.5</ele><time>2026-05-02T16:11:47.999Z</time></trkpt><trkpt lat="46.0458237058979" lon="10.36224608940608"><ele>621.0</ele><time>2026-05-02T16:11:48.999Z</time></trkpt><trkpt lat="46.045815611228235" lon="10.362345909331896"><ele>622.5</ele><time>2026-05-02T16:11:49.999Z</time></trkpt><trkpt lat="46.04582217774454" lon="10.362437359470912"><ele>624.0</ele><time>2026-05-02T16:11:50.999Z</time></trkpt><trkpt lat="46.04575885705889" lon="10.362485847783741"><ele>625.5</ele><time>2026-05-02T16:11:55.999Z</time></trkpt><trkpt lat="46.04567125451306" lon="10.362288730440614"><ele>627.0</ele><time>2026-05-02T16:11:57.999Z</time></trkpt><trkpt lat="46.04562303256021" lon="10.362115909891209"><ele>628.2</ele><time>2026-05-02T16:11:58.999Z</time></trkpt><trkpt lat="46.04556855303516" lon="10.361969913629776"><ele>629.4000000000001</ele><time>2026-05-02T16:11:59.999Z</time></trkpt><trkpt lat="46.04549670869728" lon="10.361853461473892"><ele>630.5999999999999</ele><time>2026-05-02T16:12:00.999Z</time></trkpt><trkpt lat="46.045423425137145" lon="10.361774617555172"><ele>631.8</ele><time>2026-05-02T16:12:01.999Z</time></trkpt><trkpt lat="46.04534703485287" lon="10.361731497651313"><ele>633.0</ele><time>2026-05-02T16:12:02.999Z</time></trkpt><trkpt lat="46.045260873963905" lon="10.361725147525107"><ele>633.0</ele><time>2026-05-02T16:12:03.999Z</time></trkpt><trkpt lat="46.04515867776315" lon="10.361745695258554"><ele>633.0</ele><time>2026-05-02T16:12:04.999Z</time></trkpt><trkpt lat="46.04503663632499" lon="10.361798459269943"><ele>633.0</ele><time>2026-05-02T16:12:05.999Z</time></trkpt><trkpt lat="46.044909799648714" lon="10.361886091534135"><ele>633.0</ele><time>2026-05-02T16:12:06.999Z</time></trkpt><trkpt lat="46.04477195893463" lon="10.361987521111232"><ele>635.3333333333334</ele><time>2026-05-02T16:12:07.999Z</time></trkpt><trkpt lat="46.044619259814624" lon="10.362102286346392"><ele>637.6666666666667</ele><time>2026-05-02T16:12:08.999Z</time></trkpt><trkpt lat="46.044480057066416" lon="10.362182461253132"><ele>640.0</ele><time>2026-05-02T16:12:09.999Z</time></trkpt><trkpt lat="46.04435041258728" lon="10.362237877532724"><ele>644.25</ele><time>2026-05-02T16:12:10.999Z</time></trkpt><trkpt lat="46.04422604354244" lon="10.362265457792445"><ele>648.5</ele><time>2026-05-02T16:12:11.999Z</time></trkpt><trkpt lat="46.04408431954267" lon="10.362257076371154"><ele>652.75</ele><time>2026-05-02T16:12:12.999Z</time></trkpt><trkpt lat="46.04393491684853" lon="10.36221503366866"><ele>657.0</ele><time>2026-05-02T16:12:13.999Z</time></trkpt><trkpt lat="46.04377755085486" lon="10.362162127419413"><ele>657.0</ele><time>2026-05-02T16:12:14.999Z</time></trkpt><trkpt lat="46.04360049653113" lon="10.362074871956944"><ele>657.0</ele><time>2026-05-02T16:12:15.999Z</time></trkpt><trkpt lat="46.04341774591125" lon="10.361952017211642"><ele>657.0</ele><time>2026-05-02T16:12:16.999Z</time></trkpt><trkpt lat="46.04321884063179" lon="10.361803960345906"><ele>661.3333333333334</ele><time>2026-05-02T16:12:17.999Z</time></trkpt><trkpt lat="46.043022560673656" lon="10.361660604442498"><ele>665.6666666666667</ele><time>2026-05-02T16:12:18.999Z</time></trkpt><trkpt lat="46.04285868221693" lon="10.361551639727336"><ele>670.0</ele><time>2026-05-02T16:12:19.999Z</time></trkpt><trkpt lat="46.04272581177646" lon="10.361418116221834"><ele>670.0</ele><time>2026-05-02T16:12:20.999Z</time></trkpt><trkpt lat="46.042603697830785" lon="10.361324555814619"><ele>670.0</ele><time>2026-05-02T16:12:21.999Z</time></trkpt><trkpt lat="46.04249435998817" lon="10.361215743003092"><ele>670.0</ele><time>2026-05-02T16:12:22.999Z</time></trkpt><trkpt lat="46.042400831939574" lon="10.361130377023047"><ele>670.0</ele><time>2026-05-02T16:12:23.999Z</time></trkpt><trkpt lat="46.04231961062431" lon="10.361058234708121"><ele>671.0</ele><time>2026-05-02T16:12:24.999Z</time></trkpt><trkpt lat="46.04224674025558" lon="10.36098759248616"><ele>672.0</ele><time>2026-05-02T16:12:25.999Z</time></trkpt><trkpt lat="46.042178205727005" lon="10.360938117647546"><ele>673.0</ele><time>2026-05-02T16:12:26.999Z</time></trkpt><trkpt lat="46.042114675587975" lon="10.360897798354555"><ele>674.0</ele><time>2026-05-02T16:12:27.999Z</time></trkpt><trkpt lat="46.04200998245992" lon="10.360809983546428"><ele>675.0</ele><time>2026-05-02T16:12:29.999Z</time></trkpt><trkpt lat="46.041944218927696" lon="10.360774406063138"><ele>676.0</ele><time>2026-05-02T16:12:30.999Z</time></trkpt><trkpt lat="46.04187447132903" lon="10.360725245399005"><ele>676.0</ele><time>2026-05-02T16:12:31.999Z</time></trkpt><trkpt lat="46.04180016431835" lon="10.360658429212853"><ele>676.0</ele><time>2026-05-02T16:12:32.999Z</time></trkpt><trkpt lat="46.0417076577571" lon="10.360604728847612"><ele>676.0</ele><time>2026-05-02T16:12:33.999Z</time></trkpt><trkpt lat="46.04158935221079" lon="10.360520181309258"><ele>676.0</ele><time>2026-05-02T16:12:34.999Z</time></trkpt><trkpt lat="46.04145543046442" lon="10.360529618173034"><ele>673.5</ele><time>2026-05-02T16:12:35.999Z</time></trkpt><trkpt lat="46.041344549505226" lon="10.36050193438205"><ele>671.0</ele><time>2026-05-02T16:12:36.999Z</time></trkpt><trkpt lat="46.041344549505226" lon="10.36050193438205"><ele>668.5</ele><time>2026-05-02T16:12:36.999Z</time></trkpt><trkpt lat="46.04106191036798" lon="10.360486432337709"><ele>666.0</ele><time>2026-05-02T16:12:59Z</time></trkpt><trkpt lat="46.041253331390664" lon="10.360498140773593"><ele>668.0</ele><time>2026-05-02T16:13:01Z</time></trkpt><trkpt lat="46.04135970960889" lon="10.360560178317526"><ele>670.0</ele><time>2026-05-02T16:13:02Z</time></trkpt><trkpt lat="46.04147800074983" lon="10.360572299642707"><ele>672.0</ele><time>2026-05-02T16:13:03Z</time></trkpt><trkpt lat="46.04158581989379" lon="10.360580405311184"><ele>674.0</ele><time>2026-05-02T16:13:04Z</time></trkpt><trkpt lat="46.04167808801778" lon="10.360605616994837"><ele>676.0</ele><time>2026-05-02T16:13:05Z</time></trkpt><trkpt lat="46.04175498602675" lon="10.3606618301741"><ele>676.0</ele><time>2026-05-02T16:13:06Z</time></trkpt><trkpt lat="46.04185309844903" lon="10.360744657377916"><ele>676.0</ele><time>2026-05-02T16:13:07Z</time></trkpt><trkpt lat="46.041970716318055" lon="10.360841514353853"><ele>676.0</ele><time>2026-05-02T16:13:08Z</time></trkpt><trkpt lat="46.04209638869692" lon="10.360936345549275"><ele>676.0</ele><time>2026-05-02T16:13:09Z</time></trkpt><trkpt lat="46.042241200489954" lon="10.361037965492885"><ele>676.0</ele><time>2026-05-02T16:13:10Z</time></trkpt><trkpt lat="46.0423938477622" lon="10.361148295147501"><ele>676.0</ele><time>2026-05-02T16:13:11Z</time></trkpt><trkpt lat="46.042571346121214" lon="10.361298547704799"><ele>676.0</ele><time>2026-05-02T16:13:12Z</time></trkpt><trkpt lat="46.042731249672656" lon="10.361479444744027"><ele>674.0</ele><time>2026-05-02T16:13:13Z</time></trkpt><trkpt lat="46.04288070739406" lon="10.361608533555163"><ele>672.0</ele><time>2026-05-02T16:13:14Z</time></trkpt><trkpt lat="46.04302342024777" lon="10.361730505043484"><ele>670.0</ele><time>2026-05-02T16:13:15Z</time></trkpt><trkpt lat="46.04320060001646" lon="10.361850018782658"><ele>670.0</ele><time>2026-05-02T16:13:16Z</time></trkpt><trkpt lat="46.04327491476259" lon="10.361919735702214"><ele>670.0</ele><time>2026-05-02T16:13:17Z</time></trkpt><trkpt lat="46.043429364607334" lon="10.36199853136847"><ele>670.0</ele><time>2026-05-02T16:13:18Z</time></trkpt><trkpt lat="46.04356697443842" lon="10.36207727685667"><ele>670.0</ele><time>2026-05-02T16:13:19Z</time></trkpt><trkpt lat="46.04368337093184" lon="10.362142072668805"><ele>666.75</ele><time>2026-05-02T16:13:20Z</time></trkpt><trkpt lat="46.043789703061165" lon="10.362190698454048"><ele>663.5</ele><time>2026-05-02T16:13:21Z</time></trkpt><trkpt lat="46.043889259263956" lon="10.362248011405445"><ele>660.25</ele><time>2026-05-02T16:13:22Z</time></trkpt><trkpt lat="46.04399780303568" lon="10.362286058939253"><ele>657.0</ele><time>2026-05-02T16:13:23Z</time></trkpt><trkpt lat="46.0441174217071" lon="10.362297315523232"><ele>658.2</ele><time>2026-05-02T16:13:24Z</time></trkpt><trkpt lat="46.044222626525304" lon="10.362288339833471"><ele>659.4000000000001</ele><time>2026-05-02T16:13:25Z</time></trkpt><trkpt lat="46.04433224751013" lon="10.362265961841874"><ele>660.5999999999999</ele><time>2026-05-02T16:13:26Z</time></trkpt><trkpt lat="46.044429489698935" lon="10.362239361758949"><ele>661.8</ele><time>2026-05-02T16:13:27Z</time></trkpt><trkpt lat="46.044520973408005" lon="10.362210029138735"><ele>663.0</ele><time>2026-05-02T16:13:28Z</time></trkpt><trkpt lat="46.04460322113491" lon="10.36217066257555"><ele>659.1666666666666</ele><time>2026-05-02T16:13:29Z</time></trkpt><trkpt lat="46.04466350300582" lon="10.362114439042468"><ele>655.3333333333334</ele><time>2026-05-02T16:13:34Z</time></trkpt><trkpt lat="46.044727960558184" lon="10.362095292197008"><ele>651.5</ele><time>2026-05-02T16:13:37Z</time></trkpt><trkpt lat="46.04471398694628" lon="10.362197475115174"><ele>647.6666666666667</ele><time>2026-05-02T16:21:35.999Z</time></trkpt><trkpt lat="46.04465146224978" lon="10.362143134643032"><ele>643.8333333333334</ele><time>2026-05-02T16:21:45.999Z</time></trkpt><trkpt lat="46.044734334972816" lon="10.362067974546264"><ele>640.0</ele><time>2026-05-02T16:21:49.999Z</time></trkpt><trkpt lat="46.04485045379675" lon="10.361958940037566"><ele>640.0</ele><time>2026-05-02T16:21:51.999Z</time></trkpt><trkpt lat="46.044931996583244" lon="10.361898948551548"><ele>640.0</ele><time>2026-05-02T16:21:52.999Z</time></trkpt><trkpt lat="46.045022603504044" lon="10.361838507034168"><ele>640.0</ele><time>2026-05-02T16:21:53.999Z</time></trkpt><trkpt lat="46.0450936391674" lon="10.361795276953531"><ele>640.0</ele><time>2026-05-02T16:21:54.999Z</time></trkpt><trkpt lat="46.0452119331772" lon="10.361779462483456"><ele>640.0</ele><time>2026-05-02T16:21:56.999Z</time></trkpt><trkpt lat="46.04527822200702" lon="10.361793187972625"><ele>639.0</ele><time>2026-05-02T16:21:57.999Z</time></trkpt><trkpt lat="46.04534659720852" lon="10.361798891461975"><ele>638.0</ele><time>2026-05-02T16:21:58.999Z</time></trkpt><trkpt lat="46.045406867747026" lon="10.361840414932498"><ele>637.0</ele><time>2026-05-02T16:21:59.999Z</time></trkpt><trkpt lat="46.04546318831812" lon="10.361909079653536"><ele>636.0</ele><time>2026-05-02T16:22:00.999Z</time></trkpt><trkpt lat="46.04550349368889" lon="10.361984086208249"><ele>635.0</ele><time>2026-05-02T16:22:01.999Z</time></trkpt><trkpt lat="46.045547434824655" lon="10.362069915455615"><ele>634.0</ele><time>2026-05-02T16:22:02.999Z</time></trkpt><trkpt lat="46.04558371423289" lon="10.362150262690614"><ele>633.0</ele><time>2026-05-02T16:22:03.999Z</time></trkpt><trkpt lat="46.04562340096327" lon="10.362244920840954"><ele>632.0</ele><time>2026-05-02T16:22:04.999Z</time></trkpt><trkpt lat="46.045675762608795" lon="10.362330525087252"><ele>631.0</ele><time>2026-05-02T16:22:05.999Z</time></trkpt><trkpt lat="46.04569824034806" lon="10.36243704057594"><ele>630.0</ele><time>2026-05-02T16:22:06.999Z</time></trkpt><trkpt lat="46.0457528044642" lon="10.362532079585256"><ele>629.0</ele><time>2026-05-02T16:22:08.999Z</time></trkpt><trkpt lat="46.04582749017182" lon="10.362444605484637"><ele>628.0</ele><time>2026-05-02T16:22:14.999Z</time></trkpt><trkpt lat="46.04580185594153" lon="10.362360206027072"><ele>627.0</ele><time>2026-05-02T16:22:16.999Z</time></trkpt><trkpt lat="46.045804688078874" lon="10.362236848731262"><ele>628.0</ele><time>2026-05-02T16:22:19.999Z</time></trkpt><trkpt lat="46.04579990984434" lon="10.362142068716578"><ele>629.0</ele><time>2026-05-02T16:22:21.999Z</time></trkpt><trkpt lat="46.04577965451292" lon="10.361983316032246"><ele>630.0</ele><time>2026-05-02T16:22:24.999Z</time></trkpt><trkpt lat="46.045753796361" lon="10.361876392410496"><ele>631.0</ele><time>2026-05-02T16:22:26.999Z</time></trkpt><trkpt lat="46.04570071970646" lon="10.361748794765537"><ele>632.0</ele><time>2026-05-02T16:22:28.999Z</time></trkpt><trkpt lat="46.04565958429922" lon="10.361652437637575"><ele>633.0</ele><time>2026-05-02T16:22:30.999Z</time></trkpt><trkpt lat="46.045592819742446" lon="10.361560524237204"><ele>633.0</ele><time>2026-05-02T16:22:32.999Z</time></trkpt><trkpt lat="46.04554472432735" lon="10.361472991503598"><ele>633.0</ele><time>2026-05-02T16:22:35.999Z</time></trkpt><trkpt lat="46.04551659734357" lon="10.361384048135607"><ele>633.0</ele><time>2026-05-02T16:22:37.999Z</time></trkpt><trkpt lat="46.04549180100391" lon="10.361272097984726"><ele>633.0</ele><time>2026-05-02T16:22:40.999Z</time></trkpt><trkpt lat="46.04544901488549" lon="10.36119712146755"><ele>633.0</ele><time>2026-05-02T16:22:42.999Z</time></trkpt><trkpt lat="46.045394271502225" lon="10.361148308349199"><ele>633.0</ele><time>2026-05-02T16:22:44.999Z</time></trkpt><trkpt lat="46.045307467155155" lon="10.361114990791464"><ele>633.0</ele><time>2026-05-02T16:22:46.999Z</time></trkpt><trkpt lat="46.04523814189881" lon="10.361082513078534"><ele>632.0</ele><time>2026-05-02T16:22:48.999Z</time></trkpt><trkpt lat="46.04516998875163" lon="10.361023111271773"><ele>631.0</ele><time>2026-05-02T16:22:50.999Z</time></trkpt><trkpt lat="46.04507842681237" lon="10.36094472276244"><ele>630.0</ele><time>2026-05-02T16:22:52.999Z</time></trkpt><trkpt lat="46.0449812636238" lon="10.36086240172195"><ele>629.0</ele><time>2026-05-02T16:22:54.999Z</time></trkpt><trkpt lat="46.04490002173137" lon="10.360784470756904"><ele>628.0</ele><time>2026-05-02T16:22:56.999Z</time></trkpt><trkpt lat="46.04483011871957" lon="10.360728833505776"><ele>628.0</ele><time>2026-05-02T16:22:58.999Z</time></trkpt><trkpt lat="46.044751017226396" lon="10.36073058536599"><ele>628.0</ele><time>2026-05-02T16:23:00.999Z</time></trkpt><trkpt lat="46.0446138914377" lon="10.36072222170507"><ele>628.0</ele><time>2026-05-02T16:23:02.999Z</time></trkpt><trkpt lat="46.04454172733224" lon="10.360680531259725"><ele>628.0</ele><time>2026-05-02T16:23:03.999Z</time></trkpt><trkpt lat="46.044463563195336" lon="10.360643185669007"><ele>628.0</ele><time>2026-05-02T16:23:04.999Z</time></trkpt><trkpt lat="46.044402166050055" lon="10.360582915127903"><ele>630.5999999999999</ele><time>2026-05-02T16:23:05.999Z</time></trkpt><trkpt lat="46.044313947769716" lon="10.360517571513538"><ele>633.1999999999999</ele><time>2026-05-02T16:23:07.999Z</time></trkpt><trkpt lat="46.04422703278307" lon="10.360397108612343"><ele>635.8</ele><time>2026-05-02T16:23:09.999Z</time></trkpt><trkpt lat="46.04415276850527" lon="10.3603137848334"><ele>638.4</ele><time>2026-05-02T16:23:11.999Z</time></trkpt><trkpt lat="46.04409559721419" lon="10.360275398163251"><ele>641.0</ele><time>2026-05-02T16:23:12.999Z</time></trkpt><trkpt lat="46.04402443494579" lon="10.360236919107733"><ele>641.0</ele><time>2026-05-02T16:23:13.999Z</time></trkpt><trkpt lat="46.04394016522637" lon="10.360178933879373"><ele>641.0</ele><time>2026-05-02T16:23:15.999Z</time></trkpt><trkpt lat="46.04386648129398" lon="10.360151798650863"><ele>641.0</ele><time>2026-05-02T16:23:18Z</time></trkpt><trkpt lat="46.043790229866744" lon="10.360076622002767"><ele>641.0</ele><time>2026-05-02T16:23:21Z</time></trkpt><trkpt lat="46.04372681210559" lon="10.360006775234721"><ele>641.0</ele><time>2026-05-02T16:23:23Z</time></trkpt><trkpt lat="46.04369732636214" lon="10.35992050597693"><ele>641.0</ele><time>2026-05-02T16:23:25Z</time></trkpt><trkpt lat="46.04366271176891" lon="10.359839236791704"><ele>641.0</ele><time>2026-05-02T16:23:27Z</time></trkpt><trkpt lat="46.043636162018004" lon="10.359727633261638"><ele>641.0</ele><time>2026-05-02T16:23:29Z</time></trkpt><trkpt lat="46.043625226475015" lon="10.359579820314286"><ele>641.0</ele><time>2026-05-02T16:23:31Z</time></trkpt><trkpt lat="46.043624112771596" lon="10.359411840581528"><ele>641.0</ele><time>2026-05-02T16:23:33Z</time></trkpt><trkpt lat="46.04362802704566" lon="10.359291419641357"><ele>641.0</ele><time>2026-05-02T16:23:37Z</time></trkpt><trkpt lat="46.043590746982325" lon="10.359210369964142"><ele>637.6666666666666</ele><time>2026-05-02T16:23:39Z</time></trkpt><trkpt lat="46.04351241863494" lon="10.359138479034643"><ele>634.3333333333333</ele><time>2026-05-02T16:23:41Z</time></trkpt><trkpt lat="46.04346915256155" lon="10.359060955490017"><ele>631.0</ele><time>2026-05-02T16:23:43Z</time></trkpt><trkpt lat="46.04343842367879" lon="10.358961940218745"><ele>627.6666666666666</ele><time>2026-05-02T16:23:46Z</time></trkpt><trkpt lat="46.04340142972595" lon="10.358871566971839"><ele>624.3333333333334</ele><time>2026-05-02T16:23:48Z</time></trkpt><trkpt lat="46.04334271693978" lon="10.358787364857763"><ele>621.0</ele><time>2026-05-02T16:23:50Z</time></trkpt><trkpt lat="46.04331528148736" lon="10.358679209071356"><ele>620.5</ele><time>2026-05-02T16:23:53Z</time></trkpt><trkpt lat="46.04329077235087" lon="10.358588726221374"><ele>620.0</ele><time>2026-05-02T16:23:55Z</time></trkpt><trkpt lat="46.04325770418603" lon="10.358483613267337"><ele>619.5</ele><time>2026-05-02T16:23:57Z</time></trkpt><trkpt lat="46.04321953233241" lon="10.358401986444148"><ele>619.0</ele><time>2026-05-02T16:23:59Z</time></trkpt><trkpt lat="46.04317965264506" lon="10.358284149637862"><ele>618.5</ele><time>2026-05-02T16:24:02Z</time></trkpt><trkpt lat="46.04311877058615" lon="10.358203905948272"><ele>618.0</ele><time>2026-05-02T16:24:04Z</time></trkpt><trkpt lat="46.04303063213871" lon="10.358146452350073"><ele>618.0</ele><time>2026-05-02T16:24:06Z</time></trkpt><trkpt lat="46.04294345859158" lon="10.358086109975094"><ele>618.0</ele><time>2026-05-02T16:24:08Z</time></trkpt><trkpt lat="46.0428519987733" lon="10.35802212465152"><ele>618.0</ele><time>2026-05-02T16:24:10Z</time></trkpt><trkpt lat="46.04276297978497" lon="10.357950241969986"><ele>618.0</ele><time>2026-05-02T16:24:12Z</time></trkpt><trkpt lat="46.04270405518003" lon="10.357910498854636"><ele>618.0</ele><time>2026-05-02T16:24:13Z</time></trkpt><trkpt lat="46.04264053856958" lon="10.35780900803737"><ele>613.4</ele><time>2026-05-02T16:24:15Z</time></trkpt><trkpt lat="46.04257409968774" lon="10.357742844553057"><ele>608.8</ele><time>2026-05-02T16:24:17Z</time></trkpt><trkpt lat="46.042509776577766" lon="10.357678787701223"><ele>604.2</ele><time>2026-05-02T16:24:18Z</time></trkpt><trkpt lat="46.0423754550571" lon="10.35759306728658"><ele>599.6</ele><time>2026-05-02T16:24:20Z</time></trkpt><trkpt lat="46.04229460503216" lon="10.357576329453767"><ele>595.0</ele><time>2026-05-02T16:24:22Z</time></trkpt><trkpt lat="46.04216901811516" lon="10.357598198770335"><ele>594.5</ele><time>2026-05-02T16:24:24Z</time></trkpt><trkpt lat="46.0420548896259" lon="10.357592721662215"><ele>594.0</ele><time>2026-05-02T16:24:26Z</time></trkpt><trkpt lat="46.041945070434735" lon="10.357587400582846"><ele>593.5</ele><time>2026-05-02T16:24:28Z</time></trkpt><trkpt lat="46.04188134531281" lon="10.357613891665538"><ele>593.0</ele><time>2026-05-02T16:24:30Z</time></trkpt><trkpt lat="46.04180795870677" lon="10.357616019594134"><ele>592.5</ele><time>2026-05-02T16:24:32.999Z</time></trkpt><trkpt lat="46.041742134532484" lon="10.357560819295434"><ele>592.0</ele><time>2026-05-02T16:24:35.999Z</time></trkpt><trkpt lat="46.041676912707274" lon="10.357562913088596"><ele>588.8333333333334</ele><time>2026-05-02T16:24:37.999Z</time></trkpt><trkpt lat="46.04160107585781" lon="10.357609979179522"><ele>585.6666666666667</ele><time>2026-05-02T16:24:39.999Z</time></trkpt><trkpt lat="46.04152703510133" lon="10.357674330480283"><ele>582.5</ele><time>2026-05-02T16:24:41.999Z</time></trkpt><trkpt lat="46.04145995479237" lon="10.357724964560566"><ele>579.3333333333334</ele><time>2026-05-02T16:24:43.999Z</time></trkpt><trkpt lat="46.04137724150026" lon="10.357746176056216"><ele>576.1666666666666</ele><time>2026-05-02T16:24:45.999Z</time></trkpt><trkpt lat="46.04128402016952" lon="10.357751313780003"><ele>573.0</ele><time>2026-05-02T16:24:47.999Z</time></trkpt><trkpt lat="46.04120232262253" lon="10.357732877351452"><ele>573.0</ele><time>2026-05-02T16:24:49.999Z</time></trkpt><trkpt lat="46.04112782422706" lon="10.357686938603493"><ele>573.0</ele><time>2026-05-02T16:24:51.999Z</time></trkpt><trkpt lat="46.04105870141177" lon="10.357644300041734"><ele>573.0</ele><time>2026-05-02T16:24:55.999Z</time></trkpt><trkpt lat="46.04111668627954" lon="10.35759352918223"><ele>573.0</ele><time>2026-05-02T16:25:01.999Z</time></trkpt><trkpt lat="46.04120105120173" lon="10.357551290391116"><ele>573.0</ele><time>2026-05-02T16:25:04.999Z</time></trkpt><trkpt lat="46.0412473484446" lon="10.357484314610618"><ele>573.0</ele><time>2026-05-02T16:25:05.999Z</time></trkpt><trkpt lat="46.04134117099779" lon="10.357412721147341"><ele>573.0</ele><time>2026-05-02T16:25:07.999Z</time></trkpt><trkpt lat="46.041376801627685" lon="10.357298808652146"><ele>573.0</ele><time>2026-05-02T16:25:10.999Z</time></trkpt><trkpt lat="46.04133366365792" lon="10.357180331830682"><ele>573.0</ele><time>2026-05-02T16:25:13.999Z</time></trkpt><trkpt lat="46.04130148626818" lon="10.357087849496775"><ele>573.0</ele><time>2026-05-02T16:25:15.999Z</time></trkpt><trkpt lat="46.04129054117933" lon="10.3569904042384"><ele>573.0</ele><time>2026-05-02T16:25:18.999Z</time></trkpt><trkpt lat="46.04125049732897" lon="10.356908029868004"><ele>573.0</ele><time>2026-05-02T16:25:22.999Z</time></trkpt><trkpt lat="46.04122250936172" lon="10.356802583659308"><ele>568.0</ele><time>2026-05-02T16:25:33Z</time></trkpt><trkpt lat="46.041176619174955" lon="10.356717090221398"><ele>563.0</ele><time>2026-05-02T16:25:35Z</time></trkpt><trkpt lat="46.04111583269802" lon="10.356658743500782"><ele>558.0</ele><time>2026-05-02T16:25:39Z</time></trkpt><trkpt lat="46.041032041176344" lon="10.356663288190267"><ele>553.0</ele><time>2026-05-02T16:25:42Z</time></trkpt><trkpt lat="46.04097422252357" lon="10.356798287586207"><ele>548.0</ele><time>2026-05-02T16:25:53Z</time></trkpt><trkpt lat="46.04094810956537" lon="10.35688669587001"><ele>543.0</ele><time>2026-05-02T16:26:00Z</time></trkpt><trkpt lat="46.04087134727762" lon="10.356944407344548"><ele>543.0</ele><time>2026-05-02T16:26:03Z</time></trkpt><trkpt lat="46.04080652536438" lon="10.35700180261164"><ele>543.0</ele><time>2026-05-02T16:26:05Z</time></trkpt><trkpt lat="46.04072990040567" lon="10.35707793846847"><ele>543.0</ele><time>2026-05-02T16:26:08Z</time></trkpt><trkpt lat="46.04067531179137" lon="10.357127249006458"><ele>543.0</ele><time>2026-05-02T16:26:11Z</time></trkpt><trkpt lat="46.04061603214346" lon="10.357172297551514"><ele>543.0</ele><time>2026-05-02T16:26:13Z</time></trkpt><trkpt lat="46.04054378300103" lon="10.357211052795032"><ele>543.0</ele><time>2026-05-02T16:26:16Z</time></trkpt><trkpt lat="46.040476757489" lon="10.357229575239046"><ele>543.0</ele><time>2026-05-02T16:26:18Z</time></trkpt><trkpt lat="46.040412498619396" lon="10.35723812758569"><ele>546.1666666666666</ele><time>2026-05-02T16:26:20Z</time></trkpt><trkpt lat="46.04034077636026" lon="10.357238702413653"><ele>549.3333333333334</ele><time>2026-05-02T16:26:22Z</time></trkpt><trkpt lat="46.040262290106504" lon="10.357217375232896"><ele>552.5</ele><time>2026-05-02T16:26:24Z</time></trkpt><trkpt lat="46.040159705392504" lon="10.357214315021192"><ele>555.6666666666667</ele><time>2026-05-02T16:26:26Z</time></trkpt><trkpt lat="46.040089446079214" lon="10.357203545198267"><ele>558.8333333333334</ele><time>2026-05-02T16:26:28Z</time></trkpt><trkpt lat="46.040019888293635" lon="10.35717746022439"><ele>562.0</ele><time>2026-05-02T16:26:30Z</time></trkpt><trkpt lat="46.03994527997673" lon="10.357141577513724"><ele>553.5</ele><time>2026-05-02T16:26:32Z</time></trkpt><trkpt lat="46.03986781978685" lon="10.357127531507292"><ele>545.0</ele><time>2026-05-02T16:26:34Z</time></trkpt><trkpt lat="46.03979269077867" lon="10.357153658094886"><ele>536.5</ele><time>2026-05-02T16:26:36Z</time></trkpt><trkpt lat="46.039709940994996" lon="10.357139396317898"><ele>528.0</ele><time>2026-05-02T16:26:38Z</time></trkpt><trkpt lat="46.039643164284726" lon="10.357140894511236"><ele>519.5</ele><time>2026-05-02T16:26:40Z</time></trkpt><trkpt lat="46.039566039292374" lon="10.357124670609013"><ele>511.0</ele><time>2026-05-02T16:26:43Z</time></trkpt><trkpt lat="46.039494787417695" lon="10.357077799051568"><ele>511.0</ele><time>2026-05-02T16:26:45Z</time></trkpt><trkpt lat="46.03941191877109" lon="10.35702389873636"><ele>511.0</ele><time>2026-05-02T16:26:47Z</time></trkpt><trkpt lat="46.03932431830921" lon="10.356986331816886"><ele>511.0</ele><time>2026-05-02T16:26:49Z</time></trkpt><trkpt lat="46.0392548419664" lon="10.356966658821996"><ele>511.0</ele><time>2026-05-02T16:26:51Z</time></trkpt><trkpt lat="46.039156895123426" lon="10.356936301948604"><ele>511.0</ele><time>2026-05-02T16:26:53Z</time></trkpt><trkpt lat="46.039048660502694" lon="10.356932376123327"><ele>513.0</ele><time>2026-05-02T16:26:54.999Z</time></trkpt><trkpt lat="46.038952752504294" lon="10.356921928435566"><ele>515.0</ele><time>2026-05-02T16:26:56.999Z</time></trkpt><trkpt lat="46.03881616027458" lon="10.356873096135368"><ele>517.0</ele><time>2026-05-02T16:26:58.999Z</time></trkpt><trkpt lat="46.038729336213606" lon="10.356844913853486"><ele>519.0</ele><time>2026-05-02T16:26:59.999Z</time></trkpt><trkpt lat="46.038659020406236" lon="10.356814056937417"><ele>521.0</ele><time>2026-05-02T16:27:00.999Z</time></trkpt><trkpt lat="46.0385973121738" lon="10.35678807515309"><ele>521.0</ele><time>2026-05-02T16:27:01.999Z</time></trkpt><trkpt lat="46.03850611071298" lon="10.35676436072753"><ele>521.0</ele><time>2026-05-02T16:27:03.999Z</time></trkpt><trkpt lat="46.03841098586193" lon="10.356796699424422"><ele>521.0</ele><time>2026-05-02T16:27:05.999Z</time></trkpt><trkpt lat="46.038341312917105" lon="10.356842228501286"><ele>521.0</ele><time>2026-05-02T16:27:07.999Z</time></trkpt><trkpt lat="46.03827510276144" lon="10.356862529380296"><ele>521.0</ele><time>2026-05-02T16:27:10.999Z</time></trkpt><trkpt lat="46.0382116296823" lon="10.356844416634802"><ele>521.0</ele><time>2026-05-02T16:27:12.999Z</time></trkpt><trkpt lat="46.038143505700205" lon="10.356833377760093"><ele>518.6666666666666</ele><time>2026-05-02T16:27:14.999Z</time></trkpt><trkpt lat="46.038066538093034" lon="10.356844659315808"><ele>516.3333333333333</ele><time>2026-05-02T16:27:16.999Z</time></trkpt><trkpt lat="46.03799155018018" lon="10.356867747434796"><ele>514.0</ele><time>2026-05-02T16:27:19.999Z</time></trkpt><trkpt lat="46.03791315237953" lon="10.356893091266427"><ele>511.66666666666663</ele><time>2026-05-02T16:27:24.999Z</time></trkpt><trkpt lat="46.03784734976885" lon="10.356895772008142"><ele>509.3333333333333</ele><time>2026-05-02T16:27:30Z</time></trkpt><trkpt lat="46.037772086584255" lon="10.356893713122979"><ele>507.0</ele><time>2026-05-02T16:27:35Z</time></trkpt><trkpt lat="46.037697699013435" lon="10.356899784606952"><ele>507.0</ele><time>2026-05-02T16:27:39Z</time></trkpt><trkpt lat="46.03762293200038" lon="10.356900038618381"><ele>507.0</ele><time>2026-05-02T16:27:42Z</time></trkpt><trkpt lat="46.037540445863485" lon="10.356884587985856"><ele>507.0</ele><time>2026-05-02T16:27:46Z</time></trkpt><trkpt lat="46.03747140477998" lon="10.356859009304541"><ele>507.0</ele><time>2026-05-02T16:27:49Z</time></trkpt><trkpt lat="46.03741196874943" lon="10.356823461150686"><ele>507.0</ele><time>2026-05-02T16:27:52Z</time></trkpt><trkpt lat="46.03736728889875" lon="10.356736867424171"><ele>507.0</ele><time>2026-05-02T16:27:57Z</time></trkpt><trkpt lat="46.03731958714883" lon="10.356918120071652"><ele>503.6666666666667</ele><time>2026-05-02T16:28:04Z</time></trkpt><trkpt lat="46.03729203762062" lon="10.35680000094716"><ele>500.33333333333337</ele><time>2026-05-02T16:28:05Z</time></trkpt><trkpt lat="46.03720077995843" lon="10.356696691155705"><ele>497.0</ele><time>2026-05-02T16:28:09Z</time></trkpt><trkpt lat="46.03712554578953" lon="10.35668529640487"><ele>493.6666666666667</ele><time>2026-05-02T16:28:13Z</time></trkpt><trkpt lat="46.03705548889564" lon="10.356651394474428"><ele>490.33333333333337</ele><time>2026-05-02T16:28:19Z</time></trkpt><trkpt lat="46.036980862733806" lon="10.356630399337515"><ele>487.0</ele><time>2026-05-02T16:28:39Z</time></trkpt><trkpt lat="46.03693175491908" lon="10.35669483137384"><ele>487.00000000000006</ele><time>2026-05-02T16:28:43Z</time></trkpt><trkpt lat="46.03686836341234" lon="10.35668235561051"><ele>487.0</ele><time>2026-05-02T16:28:48Z</time></trkpt><trkpt lat="46.03679738172654" lon="10.35667498171328"><ele>487.0</ele><time>2026-05-02T16:28:51Z</time></trkpt><trkpt lat="46.03672528096816" lon="10.356671975194168"><ele>487.0</ele><time>2026-05-02T16:28:54Z</time></trkpt><trkpt lat="46.03665028760115" lon="10.356682442758094"><ele>487.00000000000006</ele><time>2026-05-02T16:28:58Z</time></trkpt><trkpt lat="46.03657613866802" lon="10.356652106181485"><ele>487.0</ele><time>2026-05-02T16:29:01Z</time></trkpt><trkpt lat="46.036486785459154" lon="10.35667041099273"><ele>485.6666666666667</ele><time>2026-05-02T16:29:03Z</time></trkpt><trkpt lat="46.036374122718286" lon="10.356696432081323"><ele>484.33333333333337</ele><time>2026-05-02T16:29:05Z</time></trkpt><trkpt lat="46.036291328909286" lon="10.35668903336938"><ele>483.0</ele><time>2026-05-02T16:29:07Z</time></trkpt><trkpt lat="46.03623299150677" lon="10.35664959824479"><ele>481.66666666666663</ele><time>2026-05-02T16:29:11Z</time></trkpt><trkpt lat="46.036197260049605" lon="10.356507780076667"><ele>480.3333333333333</ele><time>2026-05-02T16:29:13.999Z</time></trkpt><trkpt lat="46.036173659837125" lon="10.356402312622503"><ele>479.0</ele><time>2026-05-02T16:29:15.999Z</time></trkpt><trkpt lat="46.03615118934727" lon="10.35628864486359"><ele>475.6</ele><time>2026-05-02T16:29:18.999Z</time></trkpt><trkpt lat="46.036055990752104" lon="10.35622576370807"><ele>472.2</ele><time>2026-05-02T16:29:19.999Z</time></trkpt><trkpt lat="46.03595015844542" lon="10.356195291195998"><ele>468.80000000000007</ele><time>2026-05-02T16:29:21.999Z</time></trkpt><trkpt lat="46.035885037395886" lon="10.356194847505035"><ele>465.40000000000003</ele><time>2026-05-02T16:29:22.999Z</time></trkpt><trkpt lat="46.03578542937467" lon="10.356165156941257"><ele>462.0</ele><time>2026-05-02T16:29:24.999Z</time></trkpt><trkpt lat="46.03588458791189" lon="10.356176453469335"><ele>462.0</ele><time>2026-05-02T16:29:38Z</time></trkpt><trkpt lat="46.035974524773465" lon="10.356202307505814"><ele>462.0</ele><time>2026-05-02T16:29:40Z</time></trkpt><trkpt lat="46.036040683253304" lon="10.356221357860278"><ele>462.0</ele><time>2026-05-02T16:29:43Z</time></trkpt><trkpt lat="46.03610351703726" lon="10.356239450901302"><ele>462.0</ele><time>2026-05-02T16:29:45Z</time></trkpt><trkpt lat="46.036158909659086" lon="10.356304130114815"><ele>462.0</ele><time>2026-05-02T16:29:46Z</time></trkpt><trkpt lat="46.03624490318855" lon="10.356328756617888"><ele>462.0</ele><time>2026-05-02T16:29:49Z</time></trkpt><trkpt lat="46.03632410872578" lon="10.356351454807164"><ele>461.0</ele><time>2026-05-02T16:29:51Z</time></trkpt><trkpt lat="46.036394199486544" lon="10.356372496291147"><ele>460.0</ele><time>2026-05-02T16:29:54Z</time></trkpt><trkpt lat="46.03647800545867" lon="10.356397655263907"><ele>459.0</ele><time>2026-05-02T16:29:56Z</time></trkpt><trkpt lat="46.03653979045584" lon="10.35641620341556"><ele>458.0</ele><time>2026-05-02T16:29:58Z</time></trkpt><trkpt lat="46.036704312109364" lon="10.356060491068936"><ele>457.99999999999994</ele><time>2026-05-02T16:30:04Z</time></trkpt><trkpt lat="46.03679592298541" lon="10.356037240845435"><ele>458.0</ele><time>2026-05-02T16:30:07Z</time></trkpt><trkpt lat="46.03687317323595" lon="10.35600207655878"><ele>458.0</ele><time>2026-05-02T16:30:20Z</time></trkpt><trkpt lat="46.03688196705955" lon="10.355849201144508"><ele>458.0</ele><time>2026-05-02T16:30:27Z</time></trkpt><trkpt lat="46.0369341096649" lon="10.355798317942595"><ele>457.99999999999994</ele><time>2026-05-02T16:30:34Z</time></trkpt><trkpt lat="46.03698482354909" lon="10.355729017868551"><ele>458.0</ele><time>2026-05-02T16:30:38Z</time></trkpt><trkpt lat="46.03705007270609" lon="10.355689660124638"><ele>457.99999999999994</ele><time>2026-05-02T16:30:41Z</time></trkpt><trkpt lat="46.0370997938161" lon="10.355632495953802"><ele>458.0</ele><time>2026-05-02T16:30:43Z</time></trkpt><trkpt lat="46.03718224889525" lon="10.355567286584307"><ele>458.0</ele><time>2026-05-02T16:30:45Z</time></trkpt><trkpt lat="46.03727372475265" lon="10.355538686316532"><ele>458.0</ele><time>2026-05-02T16:30:47Z</time></trkpt><trkpt lat="46.037340233116105" lon="10.355484134834338"><ele>457.99999999999994</ele><time>2026-05-02T16:30:50Z</time></trkpt><trkpt lat="46.03740045070427" lon="10.355436359169301"><ele>458.0</ele><time>2026-05-02T16:30:52Z</time></trkpt><trkpt lat="46.037471377318894" lon="10.355391338181532"><ele>454.49999999999994</ele><time>2026-05-02T16:30:54Z</time></trkpt><trkpt lat="46.037508100121634" lon="10.355314097726312"><ele>451.0</ele><time>2026-05-02T16:30:56Z</time></trkpt><trkpt lat="46.03756228900192" lon="10.355262032641217"><ele>447.5</ele><time>2026-05-02T16:30:58Z</time></trkpt><trkpt lat="46.03763993338317" lon="10.355242284187083"><ele>444.0</ele><time>2026-05-02T16:31:00Z</time></trkpt><trkpt lat="46.03772797843482" lon="10.355173608551109"><ele>440.49999999999994</ele><time>2026-05-02T16:31:04Z</time></trkpt><trkpt lat="46.03780409149923" lon="10.35509228538209"><ele>437.0</ele><time>2026-05-02T16:31:06Z</time></trkpt><trkpt lat="46.03788600483811" lon="10.355076685314938"><ele>436.99999999999994</ele><time>2026-05-02T16:31:08Z</time></trkpt><trkpt lat="46.037973178012436" lon="10.355052479763831"><ele>437.0</ele><time>2026-05-02T16:31:10Z</time></trkpt><trkpt lat="46.03805269347692" lon="10.354947107065662"><ele>437.0</ele><time>2026-05-02T16:31:12Z</time></trkpt><trkpt lat="46.03810921660472" lon="10.354901048559164"><ele>437.0</ele><time>2026-05-02T16:31:13Z</time></trkpt><trkpt lat="46.0381696773639" lon="10.354852366207304"><ele>436.99999999999994</ele><time>2026-05-02T16:31:14Z</time></trkpt><trkpt lat="46.03825064790003" lon="10.354747928254463"><ele>437.0</ele><time>2026-05-02T16:31:16Z</time></trkpt><trkpt lat="46.03827245648056" lon="10.354597653824218"><ele>435.20000000000005</ele><time>2026-05-02T16:31:18Z</time></trkpt><trkpt lat="46.03827899920853" lon="10.354441689486203"><ele>433.40000000000003</ele><time>2026-05-02T16:31:25Z</time></trkpt><trkpt lat="46.03835488147945" lon="10.354374092420914"><ele>431.59999999999997</ele><time>2026-05-02T16:31:28Z</time></trkpt><trkpt lat="46.038444001835174" lon="10.35435619476838"><ele>429.79999999999995</ele><time>2026-05-02T16:31:29.999Z</time></trkpt><trkpt lat="46.03851059050677" lon="10.354334547255947"><ele>428.0</ele><time>2026-05-02T16:31:31.999Z</time></trkpt><trkpt lat="46.03841048238735" lon="10.354252462754468"><ele>428.0</ele><time>2026-05-02T16:31:40.999Z</time></trkpt><trkpt lat="46.038284693032274" lon="10.354167296682693"><ele>428.0</ele><time>2026-05-02T16:31:42Z</time></trkpt><trkpt lat="46.03820586843396" lon="10.35409954568496"><ele>428.0</ele><time>2026-05-02T16:31:44Z</time></trkpt><trkpt lat="46.0382276776902" lon="10.353955634388733"><ele>428.0</ele><time>2026-05-02T16:31:46Z</time></trkpt><trkpt lat="46.03834648010971" lon="10.353950107546577"><ele>424.3333333333333</ele><time>2026-05-02T16:31:48Z</time></trkpt><trkpt lat="46.03838787539733" lon="10.35424271372986"><ele>420.66666666666663</ele><time>2026-05-02T16:31:49Z</time></trkpt><trkpt lat="46.03855427510606" lon="10.354333017445837"><ele>417.0</ele><time>2026-05-02T16:31:51Z</time></trkpt><trkpt lat="46.03864347914726" lon="10.35440925374456"><ele>417.0</ele><time>2026-05-02T16:31:52Z</time></trkpt><trkpt lat="46.038749299993604" lon="10.354500426076854"><ele>417.0</ele><time>2026-05-02T16:31:53Z</time></trkpt></trkseg></trk></gpx>